NOAA Web Site Link Tides and Currents Home Page Transparent placeholder image

Notice: We are experiencing a wide spread communication outage affecting the availability of water level and meteorological data for some of our stations, as well as several critical bridge clearance measurements. We are diligently working to resolve this data outage. Please direct all questions to tide.predictions@noaa.gov or call (301) 713-2815.

PORTS® Data Listing: 9414290 San Francisco, CA

CO-OPS RAW PORTS DATA

************************      PRELIMINARY DATA      ************************** 

     THIS RAW DATA HAS NOT BEEN SUBJECT TO THE NATIONAL OCEAN SERVICE'S        
     QUALITY CONTROL OR QUALITY ASSURANCE PROCEDURES AND DOES NOT MEET         
     THE CRITERIA AND STANDARDS OF OFFICIAL NATIONAL OCEAN SERVICE             
     DATA.  IT IS RELEASED FOR LIMITED PUBLIC USE AS PRELIMINARY DATA TO       
     BE USED ONLY WITH APPROPRIATE CAUTION.                                    

************************      PRELIMINARY DATA      ************************** 


       CD   -   Calendar date
       T    -   Time
       TZ   -   Timezone
       PW   -   Predicted water level (feet above MLLW)
       OW   -   Observed water level (feet above MLLW)
       WS   -   Wind speed (knots)
       WD   -   Wind direction (degrees true)
       WG   -   Wind gust (knots)
       AT   -   Air temperature (degrees farenheit)
       WT   -   Water temperature (degrees farenheit)
       AP   -   Air pressure (millibars)
       SA   -   Salinty (PSU - Practical Salinity Units)
       SG   -   Specific gravity
       RH   -   Relative humidity
       AG   -   Air gap (feet)
       VI   -   Visibility (nautical miles)

       ** NOTE **
       A variable that has its data fields filled with "9"s, indicates that
       data was not collected for that sample period.
       **********


STATION NAME: San Francisco (9414290)
****************************************************************************************************
    CD       T    TZ    PW     OW    WS   WD   WG    AT    WT    AP    SA    SG     RH    AG   VI
****************************************************************************************************
2019/04/18 01:48 PDT    3.69   3.84    3  245    8  52.2  53.1 1022.1 -9.9 -9.999 -99.9 -99.99 -9.99
2019/04/18 01:54 PDT    3.54   3.67    3  242    7  52.2  53.1 1022.0 -9.9 -9.999 -99.9 -99.99 -9.99
2019/04/18 02:00 PDT    3.38   3.50    2  224    6  52.0  53.2 1022.0 -9.9 -9.999 -99.9 -99.99 -9.99
2019/04/18 02:06 PDT    3.23   3.36    3  224    4  52.0  53.2 1022.0 -9.9 -9.999 -99.9 -99.99 -9.99
2019/04/18 02:12 PDT    3.07   3.16    2  213    5  52.0  53.2 1022.0 -9.9 -9.999 -99.9 -99.99 -9.99
2019/04/18 02:18 PDT    2.91   2.94    3  206    4  52.0  53.2 1021.9 -9.9 -9.999 -99.9 -99.99 -9.99
2019/04/18 02:24 PDT    2.75   2.76    3  198    7  52.0  53.2 1021.9 -9.9 -9.999 -99.9 -99.99 -9.99
2019/04/18 02:30 PDT    2.60   2.56    2  253    6  52.0  53.2 1021.7 -9.9 -9.999 -99.9 -99.99 -9.99
2019/04/18 02:36 PDT    2.44   2.40    3  245    4  52.0  53.2 1021.7 -9.9 -9.999 -99.9 -99.99 -9.99
2019/04/18 02:42 PDT    2.29   2.26    2  182    6  52.0  53.2 1021.7 -9.9 -9.999 -99.9 -99.99 -9.99
2019/04/18 02:48 PDT    2.13   2.07    5  221    6  52.0  53.2 1021.6 -9.9 -9.999 -99.9 -99.99 -9.99
2019/04/18 02:54 PDT    1.98   1.93    4  225    5  52.0  53.2 1021.6 -9.9 -9.999 -99.9 -99.99 -9.99
2019/04/18 03:00 PDT    1.84   1.78    3  262    4  52.0  53.2 1021.6 -9.9 -9.999 -99.9 -99.99 -9.99
2019/04/18 03:06 PDT    1.70   1.64    3  242    4  52.0  53.2 1021.5 -9.9 -9.999 -99.9 -99.99 -9.99
2019/04/18 03:12 PDT    1.56   1.48    2  215    4  51.8  53.1 1021.6 -9.9 -9.999 -99.9 -99.99 -9.99
2019/04/18 03:18 PDT    1.43   1.34    2  226    4  51.8  53.1 1021.5 -9.9 -9.999 -99.9 -99.99 -9.99
2019/04/18 03:24 PDT    1.30   1.17    3  226    4  51.8  53.1 1021.5 -9.9 -9.999 -99.9 -99.99 -9.99
2019/04/18 03:30 PDT    1.17   1.05    3  201    4  51.8  53.1 1021.5 -9.9 -9.999 -99.9 -99.99 -9.99
2019/04/18 03:36 PDT    1.06   0.92    2  224    4  51.8  53.2 1021.5 -9.9 -9.999 -99.9 -99.99 -9.99
2019/04/18 03:42 PDT    0.94   0.82    1  225    4  51.8  53.2 1021.4 -9.9 -9.999 -99.9 -99.99 -9.99
2019/04/18 03:48 PDT    0.84   0.75    2  267    3  51.8  53.2 1021.4 -9.9 -9.999 -99.9 -99.99 -9.99
2019/04/18 03:54 PDT    0.74   0.67    2  274    3  51.8  53.2 1021.4 -9.9 -9.999 -99.9 -99.99 -9.99
2019/04/18 04:00 PDT    0.65   0.58    2  257    4  51.8  53.2 1021.5 -9.9 -9.999 -99.9 -99.99 -9.99
2019/04/18 04:06 PDT    0.56   0.48    1  230    3  51.8  53.1 1021.5 -9.9 -9.999 -99.9 -99.99 -9.99
2019/04/18 04:12 PDT    0.48   0.47    2  240    3  51.6  53.1 1021.4 -9.9 -9.999 -99.9 -99.99 -9.99
2019/04/18 04:18 PDT    0.41   0.38    1  284    3  51.6  53.1 1021.4 -9.9 -9.999 -99.9 -99.99 -9.99
2019/04/18 04:24 PDT    0.34   0.34    4  241    7  51.6  53.1 1021.3 -9.9 -9.999 -99.9 -99.99 -9.99
2019/04/18 04:30 PDT    0.28   0.33    1  230    8  51.6  53.1 1021.3 -9.9 -9.999 -99.9 -99.99 -9.99
2019/04/18 04:36 PDT    0.23   0.34    6  219    8  51.6  53.1 1021.4 -9.9 -9.999 -99.9 -99.99 -9.99
2019/04/18 04:42 PDT    0.19   0.34    4  240    8  51.8  53.1 1021.4 -9.9 -9.999 -99.9 -99.99 -9.99
2019/04/18 04:48 PDT    0.15   0.29    3  232    5  51.8  53.4 1021.3 -9.9 -9.999 -99.9 -99.99 -9.99
2019/04/18 04:54 PDT    0.12   0.24    3  217    7  51.6  53.4 1021.2 -9.9 -9.999 -99.9 -99.99 -9.99
2019/04/18 05:00 PDT    0.10   0.17    2  223    5  51.6  54.1 1021.1 -9.9 -9.999 -99.9 -99.99 -9.99
2019/04/18 05:06 PDT    0.08   0.18    2  235    4  51.6  54.0 1021.0 -9.9 -9.999 -99.9 -99.99 -9.99
2019/04/18 05:12 PDT    0.07   0.21    2  233    3  51.6  54.5 1021.0 -9.9 -9.999 -99.9 -99.99 -9.99
2019/04/18 05:18 PDT    0.07   0.21    2  255    5  51.6  54.5 1021.0 -9.9 -9.999 -99.9 -99.99 -9.99
2019/04/18 05:24 PDT    0.08   0.21    2  230    3  51.4  54.9 1020.9 -9.9 -9.999 -99.9 -99.99 -9.99
2019/04/18 05:30 PDT    0.09   0.24    1  275    2  51.4  54.9 1020.9 -9.9 -9.999 -99.9 -99.99 -9.99
2019/04/18 05:36 PDT    0.11   0.26    4  193    5  51.4  54.9 1020.9 -9.9 -9.999 -99.9 -99.99 -9.99
2019/04/18 05:42 PDT    0.14   0.27    4  215    5  51.3  55.0 1020.9 -9.9 -9.999 -99.9 -99.99 -9.99
2019/04/18 05:48 PDT    0.17   0.35    1  234    5  51.3  55.0 1020.9 -9.9 -9.999 -99.9 -99.99 -9.99
2019/04/18 05:54 PDT    0.21   0.40    3  229    3  51.3  55.0 1020.9 -9.9 -9.999 -99.9 -99.99 -9.99
2019/04/18 06:00 PDT    0.25   0.48    2  227    3  51.1  55.6 1020.9 -9.9 -9.999 -99.9 -99.99 -9.99
2019/04/18 06:06 PDT    0.30   0.54    1  273    3  51.1  55.8 1020.9 -9.9 -9.999 -99.9 -99.99 -9.99
2019/04/18 06:12 PDT    0.36   0.66    2  240    3  51.1  55.8 1020.9 -9.9 -9.999 -99.9 -99.99 -9.99
2019/04/18 06:18 PDT    0.42   0.76    0  258    2  50.9  55.9 1021.0 -9.9 -9.999 -99.9 -99.99 -9.99
2019/04/18 06:24 PDT    0.49   0.81    1  203    2  50.9  55.9 1021.0 -9.9 -9.999 -99.9 -99.99 -9.99
2019/04/18 06:30 PDT    0.56   0.88    1  196    2  50.7  56.1 1021.0 -9.9 -9.999 -99.9 -99.99 -9.99
2019/04/18 06:36 PDT    0.64   0.95    2  192    2  50.5  56.1 1021.1 -9.9 -9.999 -99.9 -99.99 -9.99
2019/04/18 06:42 PDT    0.73   1.02    1  199    1  50.4  56.3 1021.1 -9.9 -9.999 -99.9 -99.99 -9.99
2019/04/18 06:48 PDT    0.81   1.10    2  218    2  50.4  56.3 1021.1 -9.9 -9.999 -99.9 -99.99 -9.99
2019/04/18 06:54 PDT    0.91   1.17    1  234    2  50.4  56.3 1021.2 -9.9 -9.999 -99.9 -99.99 -9.99
2019/04/18 07:00 PDT    1.00   1.24    1  191    1  50.7  56.3 1021.2 -9.9 -9.999 -99.9 -99.99 -9.99
2019/04/18 07:06 PDT    1.10   1.32    1  191    1  50.9  56.5 1021.2 -9.9 -9.999 -99.9 -99.99 -9.99
2019/04/18 07:12 PDT    1.21   1.39    1  201    1  51.3  56.5 1021.2 -9.9 -9.999 -99.9 -99.99 -9.99
2019/04/18 07:18 PDT    1.31   1.48    1  193    2  51.6  56.5 1021.3 -9.9 -9.999 -99.9 -99.99 -9.99
2019/04/18 07:24 PDT    1.42   1.61    1  168    2  52.2  56.7 1021.4 -9.9 -9.999 -99.9 -99.99 -9.99
2019/04/18 07:30 PDT    1.53   1.73    0  166    0  53.2  56.7 1021.4 -9.9 -9.999 -99.9 -99.99 -9.99
2019/04/18 07:36 PDT    1.65   1.80    1   95    1  54.1  56.7 1021.4 -9.9 -9.999 -99.9 -99.99 -9.99
2019/04/18 07:42 PDT    1.77   1.92    2   43    2  54.1  56.7 1021.4 -9.9 -9.999 -99.9 -99.99 -9.99
2019/04/18 07:48 PDT    1.88   2.01    1   14    2  54.1  56.7 1021.3 -9.9 -9.999 -99.9 -99.99 -9.99
2019/04/18 07:54 PDT    2.00   2.13    1   17    2  54.1  56.7 1021.3 -9.9 -9.999 -99.9 -99.99 -9.99
2019/04/18 08:00 PDT    2.12   2.26    0   45    1  55.0  56.8 1021.3 -9.9 -9.999 -99.9 -99.99 -9.99
2019/04/18 08:06 PDT    2.25   2.40    1   67    2  55.2  56.8 1021.2 -9.9 -9.999 -99.9 -99.99 -9.99
2019/04/18 08:12 PDT    2.37   2.54    2   92    3  55.0  56.8 1021.3 -9.9 -9.999 -99.9 -99.99 -9.99
2019/04/18 08:18 PDT    2.49   2.67    2   83    3  54.7  56.8 1021.4 -9.9 -9.999 -99.9 -99.99 -9.99
2019/04/18 08:24 PDT    2.62   2.74    2   82    3  54.7  57.0 1021.5 -9.9 -9.999 -99.9 -99.99 -9.99
2019/04/18 08:30 PDT    2.74   2.81    3   54    4  54.9  57.0 1021.4 -9.9 -9.999 -99.9 -99.99 -9.99
2019/04/18 08:36 PDT    2.86   2.94    4   54    5  54.9  57.0 1021.4 -9.9 -9.999 -99.9 -99.99 -9.99
2019/04/18 08:42 PDT    2.99   3.06    4   35    4  55.0  57.0 1021.4 -9.9 -9.999 -99.9 -99.99 -9.99
2019/04/18 08:48 PDT    3.11   3.17    4   61    5  55.2  57.0 1021.4 -9.9 -9.999 -99.9 -99.99 -9.99
2019/04/18 08:54 PDT    3.23   3.28    4   59    5  55.4  56.7 1021.4 -9.9 -9.999 -99.9 -99.99 -9.99
2019/04/18 09:00 PDT    3.35   3.42    5   32    6  55.2  56.7 1021.4 -9.9 -9.999 -99.9 -99.99 -9.99
2019/04/18 09:06 PDT    3.47   3.51    5   45    6  55.2  56.5 1021.3 -9.9 -9.999 -99.9 -99.99 -9.99
2019/04/18 09:12 PDT    3.59   3.61    5   57    6  55.2  56.7 1021.3 -9.9 -9.999 -99.9 -99.99 -9.99
2019/04/18 09:18 PDT    3.70   3.76    4   43    5  55.4  56.7 1021.3 -9.9 -9.999 -99.9 -99.99 -9.99
2019/04/18 09:24 PDT    3.82   3.89    4   29    4  55.6  56.7 1021.2 -9.9 -9.999 -99.9 -99.99 -9.99
2019/04/18 09:30 PDT    3.93   3.99    4   32    5  55.4  56.7 1021.2 -9.9 -9.999 -99.9 -99.99 -9.99
2019/04/18 09:36 PDT    4.04   4.10    4   41    4  55.6  56.7 1021.2 -9.9 -9.999 -99.9 -99.99 -9.99
2019/04/18 09:42 PDT    4.15   4.22    4   44    5  55.9  56.5 1021.2 -9.9 -9.999 -99.9 -99.99 -9.99
2019/04/18 09:48 PDT    4.25   4.30    3   45    4  56.3  56.1 1021.2 -9.9 -9.999 -99.9 -99.99 -9.99
2019/04/18 09:54 PDT    4.36   4.38    3   43    4  56.5  55.8 1021.1 -9.9 -9.999 -99.9 -99.99 -9.99
2019/04/18 10:00 PDT    4.45   4.48    4   48    4  56.7  55.2 1021.1 -9.9 -9.999 -99.9 -99.99 -9.99
2019/04/18 10:06 PDT    4.55   4.51    3   44    4  56.8  55.0 1021.2 -9.9 -9.999 -99.9 -99.99 -9.99
2019/04/18 10:12 PDT    4.64   4.57    3   47    3  56.7  54.9 1021.2 -9.9 -9.999 -99.9 -99.99 -9.99
2019/04/18 10:18 PDT    4.73   4.67    3   41    3  56.7  54.7 1021.2 -9.9 -9.999 -99.9 -99.99 -9.99
2019/04/18 10:24 PDT    4.81   4.74    2   54    3  57.2  54.5 1021.2 -9.9 -9.999 -99.9 -99.99 -9.99
2019/04/18 10:30 PDT    4.89   4.83    3   58    4  57.4  54.5 1021.2 -9.9 -9.999 -99.9 -99.99 -9.99
2019/04/18 10:36 PDT    4.96   4.92    3   68    3  57.4  54.5 1021.2 -9.9 -9.999 -99.9 -99.99 -9.99
2019/04/18 10:42 PDT    5.03   5.01    3   75    3  57.7  54.7 1021.1 -9.9 -9.999 -99.9 -99.99 -9.99
2019/04/18 10:48 PDT    5.10   5.06    3   85    3  57.6  54.9 1021.1 -9.9 -9.999 -99.9 -99.99 -9.99
2019/04/18 10:54 PDT    5.15   5.10    3   80    4  57.7  54.9 1021.1 -9.9 -9.999 -99.9 -99.99 -9.99
2019/04/18 11:00 PDT    5.20   5.19    3   75    4  58.1  54.7 1021.1 -9.9 -9.999 -99.9 -99.99 -9.99
2019/04/18 11:06 PDT    5.25   5.25    3   77    4  58.1  54.5 1021.1 -9.9 -9.999 -99.9 -99.99 -9.99
2019/04/18 11:12 PDT    5.29   5.30    4   81    4  58.3  54.3 1021.1 -9.9 -9.999 -99.9 -99.99 -9.99
2019/04/18 11:18 PDT    5.32   5.39    3   87    4  58.6  54.5 1021.0 -9.9 -9.999 -99.9 -99.99 -9.99
2019/04/18 11:24 PDT    5.34   5.43    4   83    4  59.0  55.0 1021.0 -9.9 -9.999 -99.9 -99.99 -9.99
2019/04/18 11:30 PDT    5.36   5.44    4   83    4  59.4  55.2 1021.0 -9.9 -9.999 -99.9 -99.99 -9.99
2019/04/18 11:36 PDT    5.37   5.48    4   83    4  59.9  55.4 1021.0 -9.9 -9.999 -99.9 -99.99 -9.99
2019/04/18 11:42 PDT    5.38   5.49    3   90    4  61.0  55.4 1021.0 -9.9 -9.999 -99.9 -99.99 -9.99
2019/04/18 11:48 PDT    5.37   5.50    3   98    3  62.2  55.2 1020.9 -9.9 -9.999 -99.9 -99.99 -9.99
2019/04/18 11:54 PDT    5.36   5.51    2  111    3  63.3  55.0 1020.9 -9.9 -9.999 -99.9 -99.99 -9.99
2019/04/18 12:00 PDT    5.34   5.49    2  108    3  64.2  54.9 1020.8 -9.9 -9.999 -99.9 -99.99 -9.99
2019/04/18 12:06 PDT    5.31   5.46    2   99    3  64.8  54.7 1020.8 -9.9 -9.999 -99.9 -99.99 -9.99
2019/04/18 12:12 PDT    5.28   5.43    1   96    2  65.3  54.7 1020.8 -9.9 -9.999 -99.9 -99.99 -9.99
2019/04/18 12:18 PDT    5.24   5.39    1   67    2  65.5  54.7 1020.6 -9.9 -9.999 -99.9 -99.99 -9.99
2019/04/18 12:24 PDT    5.19   5.35    0   66    2  65.8  54.7 1020.6 -9.9 -9.999 -99.9 -99.99 -9.99
2019/04/18 12:30 PDT    5.13   5.30    0   66    0  66.0  54.7 1020.5 -9.9 -9.999 -99.9 -99.99 -9.99
2019/04/18 12:36 PDT    5.07   5.27    2  337    3  65.7  54.5 1020.4 -9.9 -9.999 -99.9 -99.99 -9.99
2019/04/18 12:42 PDT    5.00   5.23    2  345    3  64.6  54.5 1020.3 -9.9 -9.999 -99.9 -99.99 -9.99
2019/04/18 12:48 PDT    4.92   5.13    1  345    2  64.9  54.3 1020.3 -9.9 -9.999 -99.9 -99.99 -9.99
2019/04/18 12:54 PDT    4.84   5.02    2  348    2  65.3  54.1 1020.2 -9.9 -9.999 -99.9 -99.99 -9.99
2019/04/18 13:00 PDT    4.75   4.92    7  244    8  65.1  54.1 1020.1 -9.9 -9.999 -99.9 -99.99 -9.99
2019/04/18 13:06 PDT    4.65   4.86    7  251   10  63.3  54.5 1020.1 -9.9 -9.999 -99.9 -99.99 -9.99
2019/04/18 13:12 PDT    4.55   4.78    9  246   11  61.5  54.0 1020.0 -9.9 -9.999 -99.9 -99.99 -9.99
2019/04/18 13:18 PDT    4.44   4.68   10  250   12  60.6  54.0 1019.9 -9.9 -9.999 -99.9 -99.99 -9.99
2019/04/18 13:24 PDT    4.33   4.57    9  252   12  60.4  53.8 1019.9 -9.9 -9.999 -99.9 -99.99 -9.99
2019/04/18 13:30 PDT    4.21   4.49    9  248   13  59.9  53.6 1019.9 -9.9 -9.999 -99.9 -99.99 -9.99
2019/04/18 13:36 PDT    4.09   4.38   10  246   14  59.4  53.6 1019.9 -9.9 -9.999 -99.9 -99.99 -9.99
2019/04/18 13:42 PDT    3.96   4.29   12  247   14  58.6  54.5 1019.9 -9.9 -9.999 -99.9 -99.99 -9.99
2019/04/18 13:48 PDT    3.83   4.18   10  244   15  58.5  54.7 1019.9 -9.9 -9.999 -99.9 -99.99 -9.99
2019/04/18 13:54 PDT    3.70   4.06    9  256   11  58.6  54.9 1019.8 -9.9 -9.999 -99.9 -99.99 -9.99
2019/04/18 14:00 PDT    3.57   3.93    7  249   12  58.6  55.2 1019.8 -9.9 -9.999 -99.9 -99.99 -9.99
2019/04/18 14:06 PDT    3.43   3.80    9  240   12  58.6  55.2 1019.7 -9.9 -9.999 -99.9 -99.99 -9.99
2019/04/18 14:12 PDT    3.29   3.65   11  241   14  58.1  54.9 1019.7 -9.9 -9.999 -99.9 -99.99 -9.99
2019/04/18 14:18 PDT    3.15   3.46    9  241   14  58.1  54.9 1019.7 -9.9 -9.999 -99.9 -99.99 -9.99
2019/04/18 14:24 PDT    3.00   3.27   10  242   14  58.3  54.9 1019.7 -9.9 -9.999 -99.9 -99.99 -9.99
2019/04/18 14:30 PDT    2.86   3.14   11  241   16  57.9  55.2 1019.7 -9.9 -9.999 -99.9 -99.99 -9.99
2019/04/18 14:36 PDT    2.72   2.96   12  245   17  57.7  55.4 1019.6 -9.9 -9.999 -99.9 -99.99 -9.99
2019/04/18 14:42 PDT    2.58   2.78   11  238   16  58.3  55.4 1019.6 -9.9 -9.999 -99.9 -99.99 -9.99
2019/04/18 14:48 PDT    2.44   2.62   12  244   17  57.9  55.2 1019.6 -9.9 -9.999 -99.9 -99.99 -9.99
2019/04/18 14:54 PDT    2.30   2.46   12  240   18  57.6  55.2 1019.5 -9.9 -9.999 -99.9 -99.99 -9.99
2019/04/18 15:00 PDT    2.16   2.29   12  239   18  57.6  55.2 1019.5 -9.9 -9.999 -99.9 -99.99 -9.99
2019/04/18 15:06 PDT    2.03   2.16   14  241   18  57.2  55.4 1019.4 -9.9 -9.999 -99.9 -99.99 -9.99
2019/04/18 15:12 PDT    1.89   2.00   13  237   18  57.6  55.4 1019.3 -9.9 -9.999 -99.9 -99.99 -9.99
2019/04/18 15:18 PDT    1.77   1.88   13  243   19  57.6  55.6 1019.3 -9.9 -9.999 -99.9 -99.99 -9.99
2019/04/18 15:24 PDT    1.64   1.76   13  238   18  57.7  55.6 1019.1 -9.9 -9.999 -99.9 -99.99 -9.99
2019/04/18 15:30 PDT    1.52   1.64   14  242   18  57.6  55.9 1019.0 -9.9 -9.999 -99.9 -99.99 -9.99
2019/04/18 15:36 PDT    1.40   1.51   10  241   15  58.5  56.1 1018.9 -9.9 -9.999 -99.9 -99.99 -9.99
2019/04/18 15:42 PDT    1.29   1.37   12  240   17  58.5  56.3 1018.9 -9.9 -9.999 -99.9 -99.99 -9.99
2019/04/18 15:48 PDT    1.19   1.27   10  234   17  58.8  56.3 1018.8 -9.9 -9.999 -99.9 -99.99 -9.99
2019/04/18 15:54 PDT    1.09   1.18   13  235   17  58.8  56.3 1018.8 -9.9 -9.999 -99.9 -99.99 -9.99
2019/04/18 16:00 PDT    0.99   1.10   11  235   18  58.8  56.3 1018.6 -9.9 -9.999 -99.9 -99.99 -9.99
2019/04/18 16:06 PDT    0.90   1.01   11  242   16  58.6  56.5 1018.5 -9.9 -9.999 -99.9 -99.99 -9.99
2019/04/18 16:12 PDT    0.82   0.93   10  248   16  58.5  56.3 1018.4 -9.9 -9.999 -99.9 -99.99 -9.99
2019/04/18 16:18 PDT    0.74   0.85   12  250   17  57.7  56.3 1018.4 -9.9 -9.999 -99.9 -99.99 -9.99
2019/04/18 16:24 PDT    0.68   0.76   11  248   17  57.4  56.5 1018.4 -9.9 -9.999 -99.9 -99.99 -9.99
2019/04/18 16:30 PDT    0.61   0.67   11  252   19  57.0  56.5 1018.2 -9.9 -9.999 -99.9 -99.99 -9.99
2019/04/18 16:36 PDT    0.56   0.58   11  236   16  56.7  56.5 1018.1 -9.9 -9.999 -99.9 -99.99 -9.99
2019/04/18 16:42 PDT    0.51   0.56   12  227   18  56.7  56.5 1018.0 -9.9 -9.999 -99.9 -99.99 -9.99
2019/04/18 16:48 PDT    0.47   0.54   12  237   19  56.7  56.3 1018.0 -9.9 -9.999 -99.9 -99.99 -9.99
2019/04/18 16:54 PDT    0.43   0.57   12  235   19  56.5  56.3 1017.9 -9.9 -9.999 -99.9 -99.99 -9.99
2019/04/18 17:00 PDT    0.40   0.61   10  242   18  56.8  55.9 1017.9 -9.9 -9.999 -99.9 -99.99 -9.99
2019/04/18 17:06 PDT    0.38   0.64    9  240   15  56.8  55.9 1017.9 -9.9 -9.999 -99.9 -99.99 -9.99
2019/04/18 17:12 PDT    0.37   0.64   11  233   17  56.5  55.9 1017.8 -9.9 -9.999 -99.9 -99.99 -9.99
2019/04/18 17:18 PDT    0.36   0.63   11  232   18  56.1  56.3 1017.8 -9.9 -9.999 -99.9 -99.99 -9.99
2019/04/18 17:24 PDT    0.36   0.64    9  235   18  56.1  55.9 1017.7 -9.9 -9.999 -99.9 -99.99 -9.99
2019/04/18 17:30 PDT    0.37   0.70   12  237   18  55.9  55.8 1017.7 -9.9 -9.999 -99.9 -99.99 -9.99
2019/04/18 17:36 PDT    0.38   0.75   10  241   16  56.3  55.4 1017.8 -9.9 -9.999 -99.9 -99.99 -9.99
2019/04/18 17:42 PDT    0.40   0.76    9  236   18  56.7  55.2 1017.7 -9.9 -9.999 -99.9 -99.99 -9.99
2019/04/18 17:48 PDT    0.43   0.83   11  241   18  56.3  55.6 1017.6 -9.9 -9.999 -99.9 -99.99 -9.99
2019/04/18 17:54 PDT    0.46   0.87    9  235   17  56.7  55.8 1017.6 -9.9 -9.999 -99.9 -99.99 -9.99
2019/04/18 18:00 PDT    0.50   0.90    9  238   14  56.5  55.8 1017.5 -9.9 -9.999 -99.9 -99.99 -9.99
2019/04/18 18:06 PDT    0.55   0.93   13  234   18  55.8  55.8 1017.5 -9.9 -9.999 -99.9 -99.99 -9.99
2019/04/18 18:12 PDT    0.60   0.99   10  237   18  55.6  55.9 1017.5 -9.9 -9.999 -99.9 -99.99 -9.99
2019/04/18 18:18 PDT    0.66   1.03   11  242   16  55.4  56.1 1017.5 -9.9 -9.999 -99.9 -99.99 -9.99
2019/04/18 18:24 PDT    0.72   1.09   11  238   16  55.2  56.5 1017.5 -9.9 -9.999 -99.9 -99.99 -9.99
2019/04/18 18:30 PDT    0.79   1.14   12  236   17  55.0  56.5 1017.4 -9.9 -9.999 -99.9 -99.99 -9.99
2019/04/18 18:36 PDT    0.86   1.20   11  239   18  54.9  56.5 1017.3 -9.9 -9.999 -99.9 -99.99 -9.99
2019/04/18 18:42 PDT    0.94   1.31   12  235   20  54.3  56.7 1017.4 -9.9 -9.999 -99.9 -99.99 -9.99
2019/04/18 18:48 PDT    1.02   1.40   10  241   15  53.8  56.7 1017.4 -9.9 -9.999 -99.9 -99.99 -9.99
2019/04/18 18:54 PDT    1.11   1.51    9  251   15  53.4  56.7 1017.4 -9.9 -9.999 -99.9 -99.99 -9.99
2019/04/18 19:00 PDT    1.21   1.60   15  242   20  52.9  56.7 1017.3 -9.9 -9.999 -99.9 -99.99 -9.99
2019/04/18 19:06 PDT    1.30   1.69   12  240   18  52.7  56.7 1017.3 -9.9 -9.999 -99.9 -99.99 -9.99
2019/04/18 19:12 PDT    1.40   1.76   13  242   18  52.7  56.7 1017.3 -9.9 -9.999 -99.9 -99.99 -9.99
2019/04/18 19:18 PDT    1.51   1.80   12  239   18  52.7  56.7 1017.2 -9.9 -9.999 -99.9 -99.99 -9.99
2019/04/18 19:24 PDT    1.62   1.93   11  234   17  52.7  56.5 1017.3 -9.9 -9.999 -99.9 -99.99 -9.99
2019/04/18 19:30 PDT    1.73   2.03   12  239   17  52.9  56.7 1017.3 -9.9 -9.999 -99.9 -99.99 -9.99
2019/04/18 19:36 PDT    1.84   2.14    8  236   16  53.1  56.5 1017.3 -9.9 -9.999 -99.9 -99.99 -9.99
2019/04/18 19:42 PDT    1.96   2.23    9  236   17  53.1  56.5 1017.3 -9.9 -9.999 -99.9 -99.99 -9.99
2019/04/18 19:48 PDT    2.08   2.32    9  233   14  52.9  57.0 1017.3 -9.9 -9.999 -99.9 -99.99 -9.99
2019/04/18 19:54 PDT    2.20   2.48    7  241   14  52.9  57.0 1017.3 -9.9 -9.999 -99.9 -99.99 -9.99
2019/04/18 20:00 PDT    2.33   2.57    9  238   13  52.9  57.2 1017.3 -9.9 -9.999 -99.9 -99.99 -9.99
2019/04/18 20:06 PDT    2.45   2.71    5  230   12  52.9  57.2 1017.3 -9.9 -9.999 -99.9 -99.99 -9.99
2019/04/18 20:12 PDT    2.58   2.87    5  237   10  52.9  57.4 1017.4 -9.9 -9.999 -99.9 -99.99 -9.99
2019/04/18 20:18 PDT    2.71   2.96    5  229   10  52.9  57.4 1017.4 -9.9 -9.999 -99.9 -99.99 -9.99
2019/04/18 20:24 PDT    2.83   3.08    8  232   12  52.9  57.4 1017.4 -9.9 -9.999 -99.9 -99.99 -9.99
2019/04/18 20:30 PDT    2.96   3.20   10  240   15  52.7  57.4 1017.5 -9.9 -9.999 -99.9 -99.99 -9.99
2019/04/18 20:36 PDT    3.09   3.31   10  237   15  52.9  57.2 1017.5 -9.9 -9.999 -99.9 -99.99 -9.99
2019/04/18 20:42 PDT    3.22   3.44    9  245   13  52.7  57.2 1017.6 -9.9 -9.999 -99.9 -99.99 -9.99
2019/04/18 20:48 PDT    3.35   3.59   10  235   16  52.7  57.2 1017.6 -9.9 -9.999 -99.9 -99.99 -9.99
2019/04/18 20:54 PDT    3.48   3.71    8  230   14  52.7  57.0 1017.7 -9.9 -9.999 -99.9 -99.99 -9.99
2019/04/18 21:00 PDT    3.61   3.84    8  232   12  52.9  56.8 1017.9 -9.9 -9.999 -99.9 -99.99 -9.99
2019/04/18 21:06 PDT    3.74   3.98    9  243   15  52.5  56.8 1017.9 -9.9 -9.999 -99.9 -99.99 -9.99
2019/04/18 21:12 PDT    3.86   4.11   10  244   13  52.5  56.8 1018.1 -9.9 -9.999 -99.9 -99.99 -9.99
2019/04/18 21:18 PDT    3.99   4.26    5  247   13  52.5  56.7 1018.3 -9.9 -9.999 -99.9 -99.99 -9.99
2019/04/18 21:24 PDT    4.11   4.36    6  257   15  52.5  56.8 1018.4 -9.9 -9.999 -99.9 -99.99 -9.99
2019/04/18 21:30 PDT    4.23   4.46    6  264   10  52.3  56.8 1018.5 -9.9 -9.999 -99.9 -99.99 -9.99
2019/04/18 21:36 PDT    4.35   4.57    5  235    7  52.3  56.7 1018.5 -9.9 -9.999 -99.9 -99.99 -9.99
2019/04/18 21:42 PDT    4.47   4.67    6  237   11  52.2  56.5 1018.6 -9.9 -9.999 -99.9 -99.99 -9.99
2019/04/18 21:48 PDT    4.59   4.77    6  238    9  52.0  56.5 1018.6 -9.9 -9.999 -99.9 -99.99 -9.99
2019/04/18 21:54 PDT    4.70   4.88    5  240   10  52.0  56.1 1018.6 -9.9 -9.999 -99.9 -99.99 -9.99
2019/04/18 22:00 PDT    4.81   4.98    4  243    8  52.0  55.4 1018.6 -9.9 -9.999 -99.9 -99.99 -9.99
2019/04/18 22:06 PDT    4.92   5.09    4  247    9  52.0  55.2 1018.5 -9.9 -9.999 -99.9 -99.99 -9.99
2019/04/18 22:12 PDT    5.03   5.18    2  225    9  52.0  55.0 1018.5 -9.9 -9.999 -99.9 -99.99 -9.99
2019/04/18 22:18 PDT    5.13   5.23    4  239    7  52.0  54.7 1018.5 -9.9 -9.999 -99.9 -99.99 -9.99
2019/04/18 22:24 PDT    5.23   5.32    5  235   10  51.8  54.7 1018.5 -9.9 -9.999 -99.9 -99.99 -9.99
2019/04/18 22:30 PDT    5.32   5.40    5  247    9  51.8  54.5 1018.5 -9.9 -9.999 -99.9 -99.99 -9.99
2019/04/18 22:36 PDT    5.41   5.51    4  257    9  51.3  54.5 1018.4 -9.9 -9.999 -99.9 -99.99 -9.99
2019/04/18 22:42 PDT    5.49   5.61    7  246   13  51.1  54.3 1018.4 -9.9 -9.999 -99.9 -99.99 -9.99
2019/04/18 22:48 PDT    5.57   5.67    8  239   14  50.9  54.3 1018.4 -9.9 -9.999 -99.9 -99.99 -9.99
2019/04/18 22:54 PDT    5.65   5.77    6  244   11  50.9  54.3 1018.3 -9.9 -9.999 -99.9 -99.99 -9.99
2019/04/18 23:00 PDT    5.72   5.85    5  228    9  51.1  54.1 1018.3 -9.9 -9.999 -99.9 -99.99 -9.99
2019/04/18 23:06 PDT    5.78   5.96    7  241   13  51.1  54.1 1018.3 -9.9 -9.999 -99.9 -99.99 -9.99
2019/04/18 23:12 PDT    5.84   6.05    4  238    9  51.1  54.1 1018.3 -9.9 -9.999 -99.9 -99.99 -9.99
2019/04/18 23:18 PDT    5.89   6.09    3  223    8  51.1  54.1 1018.3 -9.9 -9.999 -99.9 -99.99 -9.99
2019/04/18 23:24 PDT    5.94   6.15    2  224    8  51.3  54.3 1018.2 -9.9 -9.999 -99.9 -99.99 -9.99
2019/04/18 23:30 PDT    5.97   6.22    3  211    5  51.3  54.3 1018.3 -9.9 -9.999 -99.9 -99.99 -9.99
2019/04/18 23:36 PDT    6.00   6.26    2  237    9  51.1  54.3 1018.3 -9.9 -9.999 -99.9 -99.99 -9.99
2019/04/18 23:42 PDT    6.03   6.30    2  227    3  51.1  54.1 1018.2 -9.9 -9.999 -99.9 -99.99 -9.99
2019/04/18 23:48 PDT    6.04   6.34    2  235    7  50.9  54.1 1018.2 -9.9 -9.999 -99.9 -99.99 -9.99
2019/04/18 23:54 PDT    6.05   6.34    2  216    5  50.7  54.1 1018.2 -9.9 -9.999 -99.9 -99.99 -9.99
2019/04/19 00:00 PDT    6.05   6.30    1  172    7  50.7  54.0 1018.1 -9.9 -9.999 -99.9 -99.99 -9.99
2019/04/19 00:06 PDT    6.04   6.28    1  188    5  50.7  54.0 1018.1 -9.9 -9.999 -99.9 -99.99 -9.99
2019/04/19 00:12 PDT    6.03   6.30    2  243    6  50.5  54.0 1018.0 -9.9 -9.999 -99.9 -99.99 -9.99
2019/04/19 00:18 PDT    6.00   6.28    3  204    6  50.5  54.1 1017.9 -9.9 -9.999 -99.9 -99.99 -9.99
2019/04/19 00:24 PDT    5.97   6.26    1  130    5  50.5  54.1 1017.8 -9.9 -9.999 -99.9 -99.99 -9.99
2019/04/19 00:30 PDT    5.93   6.24    1  195    5  50.4  54.3 1017.8 -9.9 -9.999 -99.9 -99.99 -9.99
2019/04/19 00:36 PDT    5.88   6.17    3  182    5  50.4  54.3 1017.9 -9.9 -9.999 -99.9 -99.99 -9.99
2019/04/19 00:42 PDT    5.82   6.09    5  238    8  50.4  54.1 1017.9 -9.9 -9.999 -99.9 -99.99 -9.99
2019/04/19 00:48 PDT    5.76   6.04    3  231    8  50.2  54.0 1017.9 -9.9 -9.999 -99.9 -99.99 -9.99
2019/04/19 00:54 PDT    5.69   5.97    3  221    6  50.2  54.0 1017.8 -9.9 -9.999 -99.9 -99.99 -9.99
2019/04/19 01:00 PDT    5.60   5.87    3  197   10  50.2  54.0 1017.8 -9.9 -9.999 -99.9 -99.99 -9.99
2019/04/19 01:06 PDT    5.51   5.82    2  152    4  50.2  54.0 1017.7 -9.9 -9.999 -99.9 -99.99 -9.99
2019/04/19 01:12 PDT    5.42   5.74    3  139    4  50.2  54.0 1017.6 -9.9 -9.999 -99.9 -99.99 -9.99
2019/04/19 01:18 PDT    5.31   5.65    2  155    6  50.2  53.6 1017.6 -9.9 -9.999 -99.9 -99.99 -9.99
2019/04/19 01:24 PDT    5.20   5.51    1  139    5  50.2  53.4 1017.5 -9.9 -9.999 -99.9 -99.99 -9.99
2019/04/19 01:30 PDT    5.09   5.41    1  211    3  50.2  53.4 1017.5 -9.9 -9.999 -99.9 -99.99 -9.99
2019/04/19 01:36 PDT    4.96   5.27    4  247    6  50.0  53.4 1017.5 -9.9 -9.999 -99.9 -99.99 -9.99
2019/04/19 01:42 PDT    4.83   5.13    3  234    6  50.0  53.4 1017.4 -9.9 -9.999 -99.9 -99.99 -9.99
2019/04/19 01:48 PDT    4.69   5.03    4  220    7  50.0  53.2 1017.4 -9.9 -9.999 -99.9 -99.99 -9.99
2019/04/19 01:54 PDT    4.55   4.90    2  211    8  50.0  53.2 1017.4 -9.9 -9.999 -99.9 -99.99 -9.99
2019/04/19 02:00 PDT    4.41   4.74    4  213    6  50.0  53.2 1017.3 -9.9 -9.999 -99.9 -99.99 -9.99
2019/04/19 02:06 PDT    4.26   4.62    2  211    9  50.0  53.4 1017.3 -9.9 -9.999 -99.9 -99.99 -9.99
2019/04/19 02:12 PDT    4.10   4.46    3  236    6  50.0  53.4 1017.2 -9.9 -9.999 -99.9 -99.99 -9.99
2019/04/19 02:18 PDT    3.94   4.29    3  199    5  50.0  53.6 1017.2 -9.9 -9.999 -99.9 -99.99 -9.99
2019/04/19 02:24 PDT    3.78   4.11    1  205    4  50.0  53.6 1017.1 -9.9 -9.999 -99.9 -99.99 -9.99
2019/04/19 02:30 PDT    3.61   3.90    2  241    3  50.0  53.6 1017.0 -9.9 -9.999 -99.9 -99.99 -9.99
2019/04/19 02:36 PDT    3.45   3.71    4  227    7  50.0  53.6 1016.8 -9.9 -9.999 -99.9 -99.99 -9.99
2019/04/19 02:42 PDT    3.28   3.54    5  259    9  49.8  53.6 1016.7 -9.9 -9.999 -99.9 -99.99 -9.99
2019/04/19 02:48 PDT    3.11   3.33    6  256    9  50.0  53.6 1016.6 -9.9 -9.999 -99.9 -99.99 -9.99
2019/04/19 02:54 PDT    2.93   3.17    6  267    9  49.8  53.6 1016.6 -9.9 -9.999 -99.9 -99.99 -9.99
2019/04/19 03:00 PDT    2.76   2.99    4  259    8  49.6  53.6 1016.6 -9.9 -9.999 -99.9 -99.99 -9.99
2019/04/19 03:06 PDT    2.59   2.77    3  255    6  49.6  53.6 1016.6 -9.9 -9.999 -99.9 -99.99 -9.99
2019/04/19 03:12 PDT    2.42   2.59    6  228   10  49.6  53.6 1016.4 -9.9 -9.999 -99.9 -99.99 -9.99
2019/04/19 03:18 PDT    2.25   2.39    7  236   11  49.5  53.6 1016.4 -9.9 -9.999 -99.9 -99.99 -9.99
2019/04/19 03:24 PDT    2.08   2.19    4  232   10  49.5  53.8 1016.4 -9.9 -9.999 -99.9 -99.99 -9.99
2019/04/19 03:30 PDT    1.92   1.99    5  237    8  49.6  53.6 1016.4 -9.9 -9.999 -99.9 -99.99 -9.99
2019/04/19 03:36 PDT    1.76   1.82    4  222    7  49.5  53.6 1016.4 -9.9 -9.999 -99.9 -99.99 -9.99
2019/04/19 03:42 PDT    1.60   1.68    2  247    5  49.5  53.6 1016.4 -9.9 -9.999 -99.9 -99.99 -9.99
2019/04/19 03:48 PDT    1.45   1.54    2  251    5  49.5  53.6 1016.4 -9.9 -9.999 -99.9 -99.99 -9.99
2019/04/19 03:54 PDT    1.29   1.43    4  218    9  49.5  53.6 1016.4 -9.9 -9.999 -99.9 -99.99 -9.99
2019/04/19 04:00 PDT    1.15   1.27    4  241    8  49.3  53.6 1016.4 -9.9 -9.999 -99.9 -99.99 -9.99
2019/04/19 04:06 PDT    1.01   1.14    1  250    5  49.5  53.4 1016.4 -9.9 -9.999 -99.9 -99.99 -9.99
2019/04/19 04:12 PDT    0.87   1.01    3  190    5  49.3  53.4 1016.3 -9.9 -9.999 -99.9 -99.99 -9.99
2019/04/19 04:18 PDT    0.74   0.86    3  205    6  49.3  53.4 1016.3 -9.9 -9.999 -99.9 -99.99 -9.99
2019/04/19 04:24 PDT    0.62   0.73    3  208    6  49.3  53.4 1016.2 -9.9 -9.999 -99.9 -99.99 -9.99
2019/04/19 04:30 PDT    0.50   0.63    4  234    7  49.1  53.4 1016.2 -9.9 -9.999 -99.9 -99.99 -9.99
2019/04/19 04:36 PDT    0.39   0.49    3  223    5  49.1  53.4 1016.1 -9.9 -9.999 -99.9 -99.99 -9.99
2019/04/19 04:42 PDT    0.29   0.44    1  185    6  48.9  53.4 1016.1 -9.9 -9.999 -99.9 -99.99 -9.99
2019/04/19 04:48 PDT    0.19   0.36    4  220    6  48.9  53.4 1016.0 -9.9 -9.999 -99.9 -99.99 -9.99
2019/04/19 04:54 PDT    0.10   0.30    5  240    8  48.9  53.6 1015.8 -9.9 -9.999 -99.9 -99.99 -9.99
2019/04/19 05:00 PDT    0.02   0.28    3  229    6  48.9  53.6 1015.7 -9.9 -9.999 -99.9 -99.99 -9.99
2019/04/19 05:06 PDT   -0.05   0.26    4  198    6  48.9  53.6 1015.6 -9.9 -9.999 -99.9 -99.99 -9.99
2019/04/19 05:12 PDT   -0.12   0.28    3  207    5  48.9  53.6 1015.5 -9.9 -9.999 -99.9 -99.99 -9.99
2019/04/19 05:18 PDT   -0.18   0.21    4  171    5  48.9  53.4 1015.5 -9.9 -9.999 -99.9 -99.99 -9.99
2019/04/19 05:24 PDT   -0.23   0.12    4  220    7  48.9  54.0 1015.5 -9.9 -9.999 -99.9 -99.99 -9.99
2019/04/19 05:30 PDT   -0.28   0.07    4  212    7  48.9  54.1 1015.4 -9.9 -9.999 -99.9 -99.99 -9.99
2019/04/19 05:36 PDT   -0.31   0.02    4  203    7  48.9  54.0 1015.4 -9.9 -9.999 -99.9 -99.99 -9.99
2019/04/19 05:42 PDT   -0.34   0.01    3  228    7  48.9  54.3 1015.3 -9.9 -9.999 -99.9 -99.99 -9.99
2019/04/19 05:48 PDT   -0.36   0.00    3  207    5  48.9  54.5 1015.3 -9.9 -9.999 -99.9 -99.99 -9.99
2019/04/19 05:54 PDT   -0.38  -0.03    4  223    6  48.9  54.7 1015.2 -9.9 -9.999 -99.9 -99.99 -9.99
2019/04/19 06:00 PDT   -0.38  -0.05    4  198    8  48.9  54.9 1015.3 -9.9 -9.999 -99.9 -99.99 -9.99
2019/04/19 06:06 PDT   -0.38  -0.06    5  211    8  48.9  54.9 1015.3 -9.9 -9.999 -99.9 -99.99 -9.99
2019/04/19 06:12 PDT   -0.38  -0.05    5  215    8  48.9  54.9 1015.3 -9.9 -9.999 -99.9 -99.99 -9.99
2019/04/19 06:18 PDT   -0.36  -0.01    4  223    8  48.9  55.2 1015.3 -9.9 -9.999 -99.9 -99.99 -9.99
2019/04/19 06:24 PDT   -0.34   0.06    2  213    8  48.7  55.4 1015.3 -9.9 -9.999 -99.9 -99.99 -9.99
2019/04/19 06:30 PDT   -0.31   0.11    3  222    5  48.7  55.4 1015.3 -9.9 -9.999 -99.9 -99.99 -9.99
2019/04/19 06:36 PDT   -0.28   0.15    3  193    5  48.7  55.2 1015.2 -9.9 -9.999 -99.9 -99.99 -9.99
2019/04/19 06:42 PDT   -0.23   0.20    1  131    4  48.7  55.2 1015.2 -9.9 -9.999 -99.9 -99.99 -9.99
2019/04/19 06:48 PDT   -0.19   0.26    2  245    4  48.9  55.2 1015.2 -9.9 -9.999 -99.9 -99.99 -9.99
2019/04/19 06:54 PDT   -0.13   0.34    4  212    7  48.9  55.2 1015.2 -9.9 -9.999 -99.9 -99.99 -9.99
2019/04/19 07:00 PDT   -0.07   0.44    2  202    4  48.9  55.2 1015.3 -9.9 -9.999 -99.9 -99.99 -9.99
2019/04/19 07:06 PDT   -0.01   0.51    1  218    4  49.3  55.2 1015.2 -9.9 -9.999 -99.9 -99.99 -9.99
2019/04/19 07:12 PDT    0.07   0.59    2  209    4  49.3  55.4 1015.3 -9.9 -9.999 -99.9 -99.99 -9.99
2019/04/19 07:18 PDT    0.14   0.65    4  204    6  49.5  55.8 1015.3 -9.9 -9.999 -99.9 -99.99 -9.99
2019/04/19 07:24 PDT    0.23   0.72    4  238    8  49.6  56.1 1015.3 -9.9 -9.999 -99.9 -99.99 -9.99
2019/04/19 07:30 PDT    0.31   0.79    2  226    7  49.8  56.5 1015.3 -9.9 -9.999 -99.9 -99.99 -9.99
2019/04/19 07:36 PDT    0.40   0.86    3  202    6  50.0  56.7 1015.4 -9.9 -9.999 -99.9 -99.99 -9.99
2019/04/19 07:42 PDT    0.50   0.95    3  250    5  50.2  56.8 1015.4 -9.9 -9.999 -99.9 -99.99 -9.99
2019/04/19 07:48 PDT    0.60   1.03    6  234    8  50.0  56.8 1015.4 -9.9 -9.999 -99.9 -99.99 -9.99
2019/04/19 07:54 PDT    0.70   1.09    3  194    9  50.2  57.0 1015.4 -9.9 -9.999 -99.9 -99.99 -9.99
2019/04/19 08:00 PDT    0.81   1.17    5  204    8  50.2  57.0 1015.5 -9.9 -9.999 -99.9 -99.99 -9.99
2019/04/19 08:06 PDT    0.92   1.32    4  243    9  50.4  57.0 1015.4 -9.9 -9.999 -99.9 -99.99 -9.99
2019/04/19 08:12 PDT    1.03   1.44    5  225   10  50.5  57.0 1015.4 -9.9 -9.999 -99.9 -99.99 -9.99
2019/04/19 08:18 PDT    1.15   1.55    8  236   12  50.2  57.0 1015.5 -9.9 -9.999 -99.9 -99.99 -9.99
2019/04/19 08:24 PDT    1.27   1.66    9  233   14  50.0  57.2 1015.4 -9.9 -9.999 -99.9 -99.99 -9.99
2019/04/19 08:30 PDT    1.39   1.78    9  233   13  50.2  57.2 1015.4 -9.9 -9.999 -99.9 -99.99 -9.99
2019/04/19 08:36 PDT    1.51   1.88    7  228   12  50.4  57.2 1015.4 -9.9 -9.999 -99.9 -99.99 -9.99
2019/04/19 08:42 PDT    1.64   2.00    5  242    9  50.5  57.4 1015.5 -9.9 -9.999 -99.9 -99.99 -9.99
2019/04/19 08:48 PDT    1.76   2.13    4  243    7  50.5  57.2 1015.5 -9.9 -9.999 -99.9 -99.99 -9.99
2019/04/19 08:54 PDT    1.89   2.27    6  254   11  50.4  57.4 1015.4 -9.9 -9.999 -99.9 -99.99 -9.99
2019/04/19 09:00 PDT    2.01   2.39    5  245   10  50.5  57.4 1015.4 -9.9 -9.999 -99.9 -99.99 -9.99
2019/04/19 09:06 PDT    2.14   2.50    6  252   12  50.2  57.4 1015.4 -9.9 -9.999 -99.9 -99.99 -9.99
2019/04/19 09:12 PDT    2.27   2.63    7  253   11  50.2  57.4 1015.4 -9.9 -9.999 -99.9 -99.99 -9.99
2019/04/19 09:18 PDT    2.40   2.78    8  230   12  50.0  57.4 1015.3 -9.9 -9.999 -99.9 -99.99 -9.99
2019/04/19 09:24 PDT    2.52   2.89    7  249   10  50.2  57.4 1015.3 -9.9 -9.999 -99.9 -99.99 -9.99
2019/04/19 09:30 PDT    2.65   3.00   10  241   14  50.0  57.2 1015.3 -9.9 -9.999 -99.9 -99.99 -9.99
2019/04/19 09:36 PDT    2.78   3.12    8  234   14  50.2  57.2 1015.3 -9.9 -9.999 -99.9 -99.99 -9.99
2019/04/19 09:42 PDT    2.91   3.22    9  243   13  50.4  57.0 1015.4 -9.9 -9.999 -99.9 -99.99 -9.99
2019/04/19 09:48 PDT    3.03   3.29    8  238   17  50.5  56.8 1015.4 -9.9 -9.999 -99.9 -99.99 -9.99
2019/04/19 09:54 PDT    3.15   3.38   11  238   15  50.0  56.8 1015.3 -9.9 -9.999 -99.9 -99.99 -9.99
2019/04/19 10:00 PDT    3.28   3.50    6  228   15  50.4  56.8 1015.3 -9.9 -9.999 -99.9 -99.99 -9.99
2019/04/19 10:06 PDT    3.40   3.64    4  242    9  50.7  57.0 1015.3 -9.9 -9.999 -99.9 -99.99 -9.99
2019/04/19 10:12 PDT    3.52   3.80    2  275    7  50.7  57.0 1015.3 -9.9 -9.999 -99.9 -99.99 -9.99
2019/04/19 10:18 PDT    3.64   3.96    3  242   10  50.7  57.0 1015.3 -9.9 -9.999 -99.9 -99.99 -9.99
2019/04/19 10:24 PDT    3.75   4.07    2  210    7  50.5  56.8 1015.4 -9.9 -9.999 -99.9 -99.99 -9.99
2019/04/19 10:30 PDT    3.87   4.17    1  230    5  50.9  56.7 1015.4 -9.9 -9.999 -99.9 -99.99 -9.99
2019/04/19 10:36 PDT    3.98   4.27    1  217    5  51.1  56.7 1015.3 -9.9 -9.999 -99.9 -99.99 -9.99
2019/04/19 10:42 PDT    4.08   4.37    3  239    5  50.9  55.8 1015.3 -9.9 -9.999 -99.9 -99.99 -9.99
2019/04/19 10:48 PDT    4.19   4.47    2  226    4  51.1  55.2 1015.3 -9.9 -9.999 -99.9 -99.99 -9.99
2019/04/19 10:54 PDT    4.29   4.55    5  236    8  50.9  55.2 1015.2 -9.9 -9.999 -99.9 -99.99 -9.99
2019/04/19 11:00 PDT    4.39   4.61    5  271   11  51.1  55.0 1015.2 -9.9 -9.999 -99.9 -99.99 -9.99
2019/04/19 11:06 PDT    4.48   4.70    5  224    9  51.1  55.0 1015.3 -9.9 -9.999 -99.9 -99.99 -9.99
2019/04/19 11:12 PDT    4.57   4.74    5  243    9  51.4  55.2 1015.3 -9.9 -9.999 -99.9 -99.99 -9.99
2019/04/19 11:18 PDT    4.66   4.83    4  284    9  51.3  55.2 1015.2 -9.9 -9.999 -99.9 -99.99 -9.99
2019/04/19 11:24 PDT    4.74   4.92    3  289    8  51.3  55.2 1015.2 -9.9 -9.999 -99.9 -99.99 -9.99
2019/04/19 11:30 PDT    4.81   5.01    4  249    9  51.6  55.0 1015.2 -9.9 -9.999 -99.9 -99.99 -9.99
2019/04/19 11:36 PDT    4.88   5.08    4  286   11  51.3  55.2 1015.2 -9.9 -9.999 -99.9 -99.99 -9.99
2019/04/19 11:42 PDT    4.95   5.16    6  217   11  51.4  55.0 1015.2 -9.9 -9.999 -99.9 -99.99 -9.99
2019/04/19 11:48 PDT    5.01   5.22    7  234   14  51.4  55.0 1015.2 -9.9 -9.999 -99.9 -99.99 -9.99
2019/04/19 11:54 PDT    5.06   5.28    5  220   13  51.6  55.0 1015.0 -9.9 -9.999 -99.9 -99.99 -9.99
2019/04/19 12:00 PDT    5.11   5.33    6  223   14  51.6  54.9 1015.0 -9.9 -9.999 -99.9 -99.99 -9.99
2019/04/19 12:06 PDT    5.15   5.36    2  293    9  52.0  54.7 1014.9 -9.9 -9.999 -99.9 -99.99 -9.99
2019/04/19 12:12 PDT    5.18   5.40    3   21    8  52.2  54.5 1014.9 -9.9 -9.999 -99.9 -99.99 -9.99
2019/04/19 12:18 PDT    5.21   5.44    6  220   11  52.2  54.3 1014.8 -9.9 -9.999 -99.9 -99.99 -9.99
2019/04/19 12:24 PDT    5.23   5.47    3  268   12  52.0  54.1 1014.8 -9.9 -9.999 -99.9 -99.99 -9.99
2019/04/19 12:30 PDT    5.24   5.51    7  248   16  51.6  54.1 1014.7 -9.9 -9.999 -99.9 -99.99 -9.99
2019/04/19 12:36 PDT    5.25   5.54    5  247   11  52.2  54.0 1014.6 -9.9 -9.999 -99.9 -99.99 -9.99
2019/04/19 12:42 PDT    5.24   5.54    8  242   15  52.2  54.1 1014.5 -9.9 -9.999 -99.9 -99.99 -9.99
2019/04/19 12:48 PDT    5.23   5.54    8  221   17  52.2  54.1 1014.4 -9.9 -9.999 -99.9 -99.99 -9.99
2019/04/19 12:54 PDT    5.22   5.57    4  260   11  52.7  54.7 1014.4 -9.9 -9.999 -99.9 -99.99 -9.99
2019/04/19 13:00 PDT    5.19   5.57    9  241   14  52.3  55.0 1014.3 -9.9 -9.999 -99.9 -99.99 -9.99
2019/04/19 13:06 PDT    5.16   5.52    6  241   10  53.1  55.0 1014.3 -9.9 -9.999 -99.9 -99.99 -9.99
2019/04/19 13:12 PDT    5.12   5.49   10  251   14  52.5  55.2 1014.3 -9.9 -9.999 -99.9 -99.99 -9.99
2019/04/19 13:18 PDT    5.08   5.46    7  260   12  52.9  55.2 1014.3 -9.9 -9.999 -99.9 -99.99 -9.99
2019/04/19 13:24 PDT    5.03   5.40   10  241   16  52.5  55.2 1014.2 -9.9 -9.999 -99.9 -99.99 -9.99
2019/04/19 13:30 PDT    4.97   5.34    9  240   17  52.3  55.0 1014.2 -9.9 -9.999 -99.9 -99.99 -9.99
2019/04/19 13:36 PDT    4.90   5.29    9  253   16  52.5  54.9 1014.2 -9.9 -9.999 -99.9 -99.99 -9.99
2019/04/19 13:42 PDT    4.83   5.21    9  243   16  52.5  54.7 1014.2 -9.9 -9.999 -99.9 -99.99 -9.99
2019/04/19 13:48 PDT    4.75   5.11    5  262   14  53.1  54.3 1014.3 -9.9 -9.999 -99.9 -99.99 -9.99
2019/04/19 13:54 PDT    4.66   5.06    6  240   13  53.2  54.3 1014.2 -9.9 -9.999 -99.9 -99.99 -9.99
2019/04/19 14:00 PDT    4.57   4.98    5  244   14  53.4  54.0 1014.1 -9.9 -9.999 -99.9 -99.99 -9.99
2019/04/19 14:06 PDT    4.48   4.90    5  262   12  53.4  54.3 1014.1 -9.9 -9.999 -99.9 -99.99 -9.99
2019/04/19 14:12 PDT    4.38   4.82    6  279   10  53.4  54.5 1014.1 -9.9 -9.999 -99.9 -99.99 -9.99
2019/04/19 14:18 PDT    4.27   4.72    5  246   13  53.6  54.1 1014.1 -9.9 -9.999 -99.9 -99.99 -9.99
2019/04/19 14:24 PDT    4.16   4.62    7  268   13  53.4  53.8 1014.0 -9.9 -9.999 -99.9 -99.99 -9.99
2019/04/19 14:30 PDT    4.05   4.53   11  248   18  53.4  53.8 1013.9 -9.9 -9.999 -99.9 -99.99 -9.99
2019/04/19 14:36 PDT    3.93   4.44    7  271   16  53.4  53.8 1013.9 -9.9 -9.999 -99.9 -99.99 -9.99
2019/04/19 14:42 PDT    3.81   4.32    4  254   14  54.0  53.6 1013.8 -9.9 -9.999 -99.9 -99.99 -9.99
2019/04/19 14:48 PDT    3.69   4.21   10  238   16  54.1  53.6 1013.8 -9.9 -9.999 -99.9 -99.99 -9.99
2019/04/19 14:54 PDT    3.56   4.11   14  246   20  53.8  53.6 1013.6 -9.9 -9.999 -99.9 -99.99 -9.99
2019/04/19 15:00 PDT    3.44   3.97   11  246   16  53.8  53.6 1013.6 -9.9 -9.999 -99.9 -99.99 -9.99
2019/04/19 15:06 PDT    3.31   3.81    9  250   19  53.8  53.6 1013.6 -9.9 -9.999 -99.9 -99.99 -9.99
2019/04/19 15:12 PDT    3.18   3.68    9  239   17  54.1  53.8 1013.5 -9.9 -9.999 -99.9 -99.99 -9.99
2019/04/19 15:18 PDT    3.05   3.54   12  247   19  53.8  54.0 1013.5 -9.9 -9.999 -99.9 -99.99 -9.99
2019/04/19 15:24 PDT    2.92   3.41   12  247   19  53.8  54.1 1013.4 -9.9 -9.999 -99.9 -99.99 -9.99
2019/04/19 15:30 PDT    2.79   3.25   11  244   17  53.8  54.1 1013.4 -9.9 -9.999 -99.9 -99.99 -9.99
2019/04/19 15:36 PDT    2.66   3.08   11  261   17  53.4  54.5 1013.4 -9.9 -9.999 -99.9 -99.99 -9.99
2019/04/19 15:42 PDT    2.53   2.92    9  256   15  53.8  54.5 1013.4 -9.9 -9.999 -99.9 -99.99 -9.99
2019/04/19 15:48 PDT    2.41   2.77    8  271   12  53.8  54.7 1013.3 -9.9 -9.999 -99.9 -99.99 -9.99
2019/04/19 15:54 PDT    2.28   2.64   11  268   18  53.6  54.7 1013.3 -9.9 -9.999 -99.9 -99.99 -9.99
2019/04/19 16:00 PDT    2.16   2.50   10  271   15  53.2  54.9 1013.2 -9.9 -9.999 -99.9 -99.99 -9.99
2019/04/19 16:06 PDT    2.05   2.41    6  262   15  53.2  55.0 1013.1 -9.9 -9.999 -99.9 -99.99 -9.99
2019/04/19 16:12 PDT    1.93   2.27    9  248   15  53.4  55.0 1013.0 -9.9 -9.999 -99.9 -99.99 -9.99
2019/04/19 16:18 PDT    1.83   2.13    8  268   11  53.2  55.0 1012.9 -9.9 -9.999 -99.9 -99.99 -9.99
2019/04/19 16:24 PDT    1.72   2.03   10  257   17  53.1  55.0 1012.9 -9.9 -9.999 -99.9 -99.99 -9.99
2019/04/19 16:30 PDT    1.62   1.95    9  258   15  53.1  55.0 1012.8 -9.9 -9.999 -99.9 -99.99 -9.99
2019/04/19 16:36 PDT    1.53   1.87    7  241   17  53.1  55.0 1012.8 -9.9 -9.999 -99.9 -99.99 -9.99
2019/04/19 16:42 PDT    1.44   1.76    8  271   13  53.1  55.2 1012.7 -9.9 -9.999 -99.9 -99.99 -9.99
2019/04/19 16:48 PDT    1.35   1.66    6  277   15  52.9  55.2 1012.6 -9.9 -9.999 -99.9 -99.99 -9.99
2019/04/19 16:54 PDT    1.27   1.59    8  279   13  52.9  55.4 1012.6 -9.9 -9.999 -99.9 -99.99 -9.99
2019/04/19 17:00 PDT    1.20   1.51   10  249   14  52.7  55.4 1012.5 -9.9 -9.999 -99.9 -99.99 -9.99
2019/04/19 17:06 PDT    1.14   1.43    7  254   19  52.7  55.6 1012.4 -9.9 -9.999 -99.9 -99.99 -9.99
2019/04/19 17:12 PDT    1.08   1.41   11  264   16  52.7  55.6 1012.4 -9.9 -9.999 -99.9 -99.99 -9.99
2019/04/19 17:18 PDT    1.02   1.33    8  252   17  52.7  55.6 1012.4 -9.9 -9.999 -99.9 -99.99 -9.99
2019/04/19 17:24 PDT    0.98   1.29    8  262   14  52.9  55.6 1012.4 -9.9 -9.999 -99.9 -99.99 -9.99
2019/04/19 17:30 PDT    0.94   1.26    8  263   12  52.9  55.6 1012.4 -9.9 -9.999 -99.9 -99.99 -9.99
2019/04/19 17:36 PDT    0.90   1.24    9  259   16  52.7  55.6 1012.3 -9.9 -9.999 -99.9 -99.99 -9.99
2019/04/19 17:42 PDT    0.88   1.19    8  244   18  52.9  55.6 1012.3 -9.9 -9.999 -99.9 -99.99 -9.99
2019/04/19 17:48 PDT    0.86   1.15   11  262   18  52.9  55.6 1012.3 -9.9 -9.999 -99.9 -99.99 -9.99
2019/04/19 17:54 PDT    0.84   1.15   11  243   17  52.9  55.6 1012.1 -9.9 -9.999 -99.9 -99.99 -9.99
2019/04/19 18:00 PDT    0.84   1.20   12  242   18  52.9  55.4 1012.0 -9.9 -9.999 -99.9 -99.99 -9.99
2019/04/19 18:06 PDT    0.84   1.27   10  242   16  52.9  55.4 1012.0 -9.9 -9.999 -99.9 -99.99 -9.99
2019/04/19 18:12 PDT    0.84   1.31   10  253   17  53.1  55.4 1012.1 -9.9 -9.999 -99.9 -99.99 -9.99
2019/04/19 18:18 PDT    0.86   1.35   11  266   16  53.1  55.2 1012.1 -9.9 -9.999 -99.9 -99.99 -9.99
2019/04/19 18:24 PDT    0.87   1.35    9  254   17  52.9  55.4 1012.0 -9.9 -9.999 -99.9 -99.99 -9.99
2019/04/19 18:30 PDT    0.90   1.40   11  259   18  52.5  55.2 1012.0 -9.9 -9.999 -99.9 -99.99 -9.99
2019/04/19 18:36 PDT    0.93   1.45   11  250   18  52.2  55.0 1012.0 -9.9 -9.999 -99.9 -99.99 -9.99
2019/04/19 18:42 PDT    0.97   1.55   11  254   18  52.0  55.0 1012.0 -9.9 -9.999 -99.9 -99.99 -9.99
2019/04/19 18:48 PDT    1.01   1.62   11  247   18  52.2  55.0 1012.0 -9.9 -9.999 -99.9 -99.99 -9.99
2019/04/19 18:54 PDT    1.06   1.70   11  251   15  52.2  55.2 1012.0 -9.9 -9.999 -99.9 -99.99 -9.99
2019/04/19 19:00 PDT    1.12   1.76    9  259   18  52.5  55.4 1012.0 -9.9 -9.999 -99.9 -99.99 -9.99
2019/04/19 19:06 PDT    1.18   1.80    9  254   15  52.7  55.4 1011.9 -9.9 -9.999 -99.9 -99.99 -9.99
2019/04/19 19:12 PDT    1.24   1.90    9  258   16  52.9  55.6 1012.0 -9.9 -9.999 -99.9 -99.99 -9.99
2019/04/19 19:18 PDT    1.31   1.98   11  259   22  52.9  55.6 1011.9 -9.9 -9.999 -99.9 -99.99 -9.99
2019/04/19 19:24 PDT    1.39   2.05   13  254   19  52.9  55.6 1011.9 -9.9 -9.999 -99.9 -99.99 -9.99
2019/04/19 19:30 PDT    1.47   2.10   11  248   20  52.9  55.8 1011.9 -9.9 -9.999 -99.9 -99.99 -9.99
2019/04/19 19:36 PDT    1.56   2.16   13  249   17  52.9  55.8 1011.8 -9.9 -9.999 -99.9 -99.99 -9.99
2019/04/19 19:42 PDT    1.64   2.23   11  266   21  52.9  55.9 1011.8 -9.9 -9.999 -99.9 -99.99 -9.99
2019/04/19 19:48 PDT    1.74   2.30   14  266   21  52.5  55.9 1011.8 -9.9 -9.999 -99.9 -99.99 -9.99
2019/04/19 19:54 PDT    1.84   2.37   12  250   20  52.5  55.9 1011.8 -9.9 -9.999 -99.9 -99.99 -9.99
2019/04/19 20:00 PDT    1.94   2.48   12  247   18  52.5  56.1 1011.8 -9.9 -9.999 -99.9 -99.99 -9.99
2019/04/19 20:06 PDT    2.04   2.59   11  253   23  52.3  56.3 1011.8 -9.9 -9.999 -99.9 -99.99 -9.99
2019/04/19 20:12 PDT    2.15   2.69   11  257   21  52.3  56.3 1011.8 -9.9 -9.999 -99.9 -99.99 -9.99
2019/04/19 20:18 PDT    2.26   2.81   13  248   20  52.2  56.3 1011.9 -9.9 -9.999 -99.9 -99.99 -9.99
2019/04/19 20:24 PDT    2.37   2.91   11  255   16  52.2  56.3 1011.9 -9.9 -9.999 -99.9 -99.99 -9.99
2019/04/19 20:30 PDT    2.49   3.01   15  251   24  52.2  56.3 1012.0 -9.9 -9.999 -99.9 -99.99 -9.99
2019/04/19 20:36 PDT    2.60   3.11   13  254   22  51.8  56.3 1012.1 -9.9 -9.999 -99.9 -99.99 -9.99
2019/04/19 20:42 PDT    2.72   3.21   13  247   21  52.0  56.3 1012.1 -9.9 -9.999 -99.9 -99.99 -9.99
2019/04/19 20:48 PDT    2.84   3.36   13  252   20  52.0  56.3 1012.1 -9.9 -9.999 -99.9 -99.99 -9.99
2019/04/19 20:54 PDT    2.96   3.48   12  259   19  52.2  56.3 1012.1 -9.9 -9.999 -99.9 -99.99 -9.99
2019/04/19 21:00 PDT    3.09   3.57   11  246   18  52.2  56.3 1012.2 -9.9 -9.999 -99.9 -99.99 -9.99
2019/04/19 21:06 PDT    3.21   3.69   12  248   18  52.2  56.3 1012.2 -9.9 -9.999 -99.9 -99.99 -9.99
2019/04/19 21:12 PDT    3.33   3.81   10  259   17  52.2  56.3 1012.3 -9.9 -9.999 -99.9 -99.99 -9.99
2019/04/19 21:18 PDT    3.46   3.93   10  243   16  52.2  56.3 1012.3 -9.9 -9.999 -99.9 -99.99 -9.99
2019/04/19 21:24 PDT    3.58   4.09   10  252   15  52.3  56.3 1012.4 -9.9 -9.999 -99.9 -99.99 -9.99
2019/04/19 21:30 PDT    3.70   4.20   11  250   17  52.2  56.3 1012.5 -9.9 -9.999 -99.9 -99.99 -9.99
2019/04/19 21:36 PDT    3.83   4.31   12  275   17  52.2  56.3 1012.6 -9.9 -9.999 -99.9 -99.99 -9.99
2019/04/19 21:42 PDT    3.95   4.40   10  252   16  52.3  56.3 1012.5 -9.9 -9.999 -99.9 -99.99 -9.99
2019/04/19 21:48 PDT    4.07   4.50    8  258   14  52.3  56.3 1012.5 -9.9 -9.999 -99.9 -99.99 -9.99
2019/04/19 21:54 PDT    4.19   4.61   11  269   16  52.3  56.3 1012.5 -9.9 -9.999 -99.9 -99.99 -9.99
2019/04/19 22:00 PDT    4.31   4.74    8  269   18  52.3  56.3 1012.6 -9.9 -9.999 -99.9 -99.99 -9.99
2019/04/19 22:06 PDT    4.42   4.81   10  247   15  52.3  56.3 1012.6 -9.9 -9.999 -99.9 -99.99 -9.99
2019/04/19 22:12 PDT    4.54   4.92    9  265   16  52.3  56.3 1012.7 -9.9 -9.999 -99.9 -99.99 -9.99
2019/04/19 22:18 PDT    4.65   5.05   11  247   18  52.3  56.3 1012.7 -9.9 -9.999 -99.9 -99.99 -9.99
2019/04/19 22:24 PDT    4.76   5.14    9  262   13  52.3  56.3 1012.7 -9.9 -9.999 -99.9 -99.99 -9.99
2019/04/19 22:30 PDT    4.87   5.25    8  247   13  52.5  56.3 1012.6 -9.9 -9.999 -99.9 -99.99 -9.99
2019/04/19 22:36 PDT    4.97   5.36    7  248   13  52.7  56.1 1012.7 -9.9 -9.999 -99.9 -99.99 -9.99
2019/04/19 22:42 PDT    5.08   5.46    8  259   12  52.9  55.8 1012.7 -9.9 -9.999 -99.9 -99.99 -9.99
2019/04/19 22:48 PDT    5.18   5.57    9  243   14  52.9  55.2 1012.7 -9.9 -9.999 -99.9 -99.99 -9.99
2019/04/19 22:54 PDT    5.27   5.64    8  245   16  53.1  54.9 1012.6 -9.9 -9.999 -99.9 -99.99 -9.99
2019/04/19 23:00 PDT    5.36   5.72    8  258   14  53.1  54.9 1012.6 -9.9 -9.999 -99.9 -99.99 -9.99
2019/04/19 23:06 PDT    5.45   5.79    7  262   13  53.2  54.7 1012.6 -9.9 -9.999 -99.9 -99.99 -9.99
2019/04/19 23:12 PDT    5.54   5.89   10  240   19  53.1  54.5 1012.6 -9.9 -9.999 -99.9 -99.99 -9.99
2019/04/19 23:18 PDT    5.62   5.98    9  252   15  53.2  54.3 1012.6 -9.9 -9.999 -99.9 -99.99 -9.99
2019/04/19 23:24 PDT    5.69   6.05   10  246   17  53.1  54.3 1012.6 -9.9 -9.999 -99.9 -99.99 -9.99
2019/04/19 23:30 PDT    5.77   6.13   10  253   18  53.2  54.1 1012.6 -9.9 -9.999 -99.9 -99.99 -9.99
2019/04/19 23:36 PDT    5.83   6.19    8  252   22  53.1  54.1 1012.7 -9.9 -9.999 -99.9 -99.99 -9.99
2019/04/19 23:42 PDT    5.89   6.27   11  238   17  53.1  54.1 1012.8 -9.9 -9.999 -99.9 -99.99 -9.99
2019/04/19 23:48 PDT    5.95   6.37   11  239   17  52.7  54.1 1012.8 -9.9 -9.999 -99.9 -99.99 -9.99
2019/04/19 23:54 PDT    5.99   6.43   10  260   16  52.7  54.0 1012.9 -9.9 -9.999 -99.9 -99.99 -9.99
2019/04/20 00:00 PDT    6.04   6.47   11  248   16  52.5  54.0 1012.8 -9.9 -9.999 -99.9 -99.99 -9.99
2019/04/20 00:06 PDT    6.07   6.51   13  256   20  52.5  54.0 1012.9 -9.9 -9.999 -99.9 -99.99 -9.99
2019/04/20 00:12 PDT    6.10   6.55   12  247   19  52.3  54.0 1012.8 -9.9 -9.999 -99.9 -99.99 -9.99
2019/04/20 00:18 PDT    6.12   6.57   10  249   19  52.3  54.0 1012.9 -9.9 -9.999 -99.9 -99.99 -9.99
2019/04/20 00:24 PDT    6.14   6.58   10  246   19  52.3  54.0 1012.9 -9.9 -9.999 -99.9 -99.99 -9.99
2019/04/20 00:30 PDT    6.14   6.63   11  252   17  52.3  54.0 1012.9 -9.9 -9.999 -99.9 -99.99 -9.99
2019/04/20 00:36 PDT    6.14   6.63   12  244   17  52.2  53.8 1012.9 -9.9 -9.999 -99.9 -99.99 -9.99
2019/04/20 00:42 PDT    6.14   6.60   13  251   18  52.2  53.8 1012.9 -9.9 -9.999 -99.9 -99.99 -9.99
2019/04/20 00:48 PDT    6.12   6.59   11  252   22  52.0  53.8 1013.0 -9.9 -9.999 -99.9 -99.99 -9.99
2019/04/20 00:54 PDT    6.10   6.58   12  254   20  52.0  53.6 1013.0 -9.9 -9.999 -99.9 -99.99 -9.99
2019/04/20 01:00 PDT    6.06   6.55   10  255   17  52.0  53.6 1013.1 -9.9 -9.999 -99.9 -99.99 -9.99
2019/04/20 01:06 PDT    6.02   6.54    8  254   20  52.0  53.6 1013.0 -9.9 -9.999 -99.9 -99.99 -9.99
2019/04/20 01:12 PDT    5.97   6.49    9  247   14  51.8  53.6 1013.0 -9.9 -9.999 -99.9 -99.99 -9.99
2019/04/20 01:18 PDT    5.92   6.42   12  235   17  51.8  53.8 1012.9 -9.9 -9.999 -99.9 -99.99 -9.99
2019/04/20 01:24 PDT    5.85   6.33   10  260   17  52.0  53.8 1012.9 -9.9 -9.999 -99.9 -99.99 -9.99
2019/04/20 01:30 PDT    5.78   6.26   12  249   21  51.8  53.8 1012.8 -9.9 -9.999 -99.9 -99.99 -9.99
2019/04/20 01:36 PDT    5.70   6.20    8  240   16  52.0  53.8 1012.7 -9.9 -9.999 -99.9 -99.99 -9.99
2019/04/20 01:42 PDT    5.61   6.11    7  252   13  52.0  53.8 1012.7 -9.9 -9.999 -99.9 -99.99 -9.99
2019/04/20 01:48 PDT    5.51   6.02    8  250   17  51.8  53.8 1012.6 -9.9 -9.999 -99.9 -99.99 -9.99
2019/04/20 01:54 PDT    5.41   5.91    9  237   16  51.8  53.8 1012.5 -9.9 -9.999 -99.9 -99.99 -9.99
2019/04/20 02:00 PDT    5.30   5.79   11  243   16  51.8  53.6 1012.5 -9.9 -9.999 -99.9 -99.99 -9.99
2019/04/20 02:06 PDT    5.18   5.66    9  248   17  52.0  53.6 1012.5 -9.9 -9.999 -99.9 -99.99 -9.99
2019/04/20 02:12 PDT    5.06   5.56   11  248   17  52.0  53.4 1012.5 -9.9 -9.999 -99.9 -99.99 -9.99
2019/04/20 02:18 PDT    4.93   5.44   10  246   19  52.0  53.4 1012.4 -9.9 -9.999 -99.9 -99.99 -9.99
2019/04/20 02:24 PDT    4.79   5.30   11  244   20  52.0  53.4 1012.3 -9.9 -9.999 -99.9 -99.99 -9.99
2019/04/20 02:30 PDT    4.65   5.17   10  243   17  52.0  53.2 1012.3 -9.9 -9.999 -99.9 -99.99 -9.99
2019/04/20 02:36 PDT    4.50   5.02    8  249   15  52.2  53.2 1012.2 -9.9 -9.999 -99.9 -99.99 -9.99
2019/04/20 02:42 PDT    4.34   4.85   11  252   17  52.0  53.2 1012.1 -9.9 -9.999 -99.9 -99.99 -9.99
2019/04/20 02:48 PDT    4.19   4.69    7  243   16  52.2  53.2 1012.0 -9.9 -9.999 -99.9 -99.99 -9.99
2019/04/20 02:54 PDT    4.03   4.54    7  256   12  52.2  53.2 1012.0 -9.9 -9.999 -99.9 -99.99 -9.99
2019/04/20 03:00 PDT    3.86   4.37    8  245   14  52.2  53.2 1012.1 -9.9 -9.999 -99.9 -99.99 -9.99
2019/04/20 03:06 PDT    3.69   4.21   10  239   15  52.2  53.4 1012.1 -9.9 -9.999 -99.9 -99.99 -9.99
2019/04/20 03:12 PDT    3.52   4.01    9  237   16  52.2  53.4 1012.0 -9.9 -9.999 -99.9 -99.99 -9.99
2019/04/20 03:18 PDT    3.35   3.81    6  243   14  52.2  53.4 1012.1 -9.9 -9.999 -99.9 -99.99 -9.99
2019/04/20 03:24 PDT    3.17   3.61    6  268   13  52.2  53.4 1012.1 -9.9 -9.999 -99.9 -99.99 -9.99
2019/04/20 03:30 PDT    3.00   3.38    7  278   11  52.2  53.4 1012.1 -9.9 -9.999 -99.9 -99.99 -9.99
2019/04/20 03:36 PDT    2.82   3.18    7  260   15  52.2  53.6 1012.0 -9.9 -9.999 -99.9 -99.99 -9.99
2019/04/20 03:42 PDT    2.64   2.99    7  278   12  52.3  53.6 1011.8 -9.9 -9.999 -99.9 -99.99 -9.99
2019/04/20 03:48 PDT    2.46   2.78    8  281   12  52.2  53.6 1011.8 -9.9 -9.999 -99.9 -99.99 -9.99
2019/04/20 03:54 PDT    2.29   2.58    5  288   10  52.3  53.6 1011.9 -9.9 -9.999 -99.9 -99.99 -9.99
2019/04/20 04:00 PDT    2.11   2.40    5  253   11  52.3  53.8 1011.9 -9.9 -9.999 -99.9 -99.99 -9.99
2019/04/20 04:06 PDT    1.94   2.21    7  260   14  52.2  53.8 1011.9 -9.9 -9.999 -99.9 -99.99 -9.99
2019/04/20 04:12 PDT    1.77   2.03    8  240   13  52.3  53.8 1012.0 -9.9 -9.999 -99.9 -99.99 -9.99
2019/04/20 04:18 PDT    1.60   1.89    8  251   15  52.3  54.0 1012.0 -9.9 -9.999 -99.9 -99.99 -9.99
2019/04/20 04:24 PDT    1.44   1.76   11  245   18  52.3  53.8 1011.9 -9.9 -9.999 -99.9 -99.99 -9.99
2019/04/20 04:30 PDT    1.28   1.57   11  238   19  52.5  53.6 1011.9 -9.9 -9.999 -99.9 -99.99 -9.99
2019/04/20 04:36 PDT    1.12   1.41    6  241   12  52.5  53.6 1011.9 -9.9 -9.999 -99.9 -99.99 -9.99
2019/04/20 04:42 PDT    0.97   1.32    8  237   14  52.5  53.4 1012.1 -9.9 -9.999 -99.9 -99.99 -9.99
2019/04/20 04:48 PDT    0.82   1.20   10  240   16  52.5  53.4 1012.3 -9.9 -9.999 -99.9 -99.99 -9.99
2019/04/20 04:54 PDT    0.68   1.04   12  239   19  52.5  53.4 1012.1 -9.9 -9.999 -99.9 -99.99 -9.99
2019/04/20 05:00 PDT    0.55   0.88   15  238   20  52.5  53.4 1012.2 -9.9 -9.999 -99.9 -99.99 -9.99
2019/04/20 05:06 PDT    0.42   0.76   13  243   20  52.5  53.6 1012.4 -9.9 -9.999 -99.9 -99.99 -9.99
2019/04/20 05:12 PDT    0.30   0.65   11  249   16  52.7  53.6 1012.2 -9.9 -9.999 -99.9 -99.99 -9.99
2019/04/20 05:18 PDT    0.18   0.54   13  241   21  52.7  53.6 1012.0 -9.9 -9.999 -99.9 -99.99 -9.99
2019/04/20 05:24 PDT    0.07   0.45   13  238   18  52.7  53.6 1012.0 -9.9 -9.999 -99.9 -99.99 -9.99
2019/04/20 05:30 PDT   -0.03   0.38    9  241   19  52.7  53.6 1012.3 -9.9 -9.999 -99.9 -99.99 -9.99
2019/04/20 05:36 PDT   -0.12   0.25    9  241   18  52.9  53.6 1012.3 -9.9 -9.999 -99.9 -99.99 -9.99
2019/04/20 05:42 PDT   -0.21   0.19    8  255   19  52.7  53.6 1012.4 -9.9 -9.999 -99.9 -99.99 -9.99
2019/04/20 05:48 PDT   -0.29   0.16    9  271   16  52.7  53.6 1012.4 -9.9 -9.999 -99.9 -99.99 -9.99
2019/04/20 05:54 PDT   -0.36   0.11    8  257   18  52.7  53.6 1012.5 -9.9 -9.999 -99.9 -99.99 -9.99
2019/04/20 06:00 PDT   -0.43   0.10    8  259   15  52.9  53.6 1012.5 -9.9 -9.999 -99.9 -99.99 -9.99
2019/04/20 06:06 PDT   -0.48   0.03    7  236   17  52.9  53.6 1012.3 -9.9 -9.999 -99.9 -99.99 -9.99
2019/04/20 06:12 PDT   -0.53  -0.03    8  247   15  52.9  53.8 1012.3 -9.9 -9.999 -99.9 -99.99 -9.99
2019/04/20 06:18 PDT   -0.58  -0.07    8  249   12  52.9  53.8 1012.3 -9.9 -9.999 -99.9 -99.99 -9.99
2019/04/20 06:24 PDT   -0.61  -0.05    9  240   13  52.9  54.0 1012.4 -9.9 -9.999 -99.9 -99.99 -9.99
2019/04/20 06:30 PDT   -0.64  -0.07    8  239   18  52.9  54.1 1012.3 -9.9 -9.999 -99.9 -99.99 -9.99
2019/04/20 06:36 PDT   -0.66  -0.09    5  235   11  52.9  54.5 1012.4 -9.9 -9.999 -99.9 -99.99 -9.99
2019/04/20 06:42 PDT   -0.67  -0.12    6  271   11  52.9  54.9 1012.5 -9.9 -9.999 -99.9 -99.99 -9.99
2019/04/20 06:48 PDT   -0.67  -0.14    4  251    9  52.9  54.9 1012.5 -9.9 -9.999 -99.9 -99.99 -9.99
2019/04/20 06:54 PDT   -0.67  -0.12    3  253   14  53.1  54.9 1012.5 -9.9 -9.999 -99.9 -99.99 -9.99
2019/04/20 07:00 PDT   -0.66  -0.16    7  263   11  53.1  54.9 1012.6 -9.9 -9.999 -99.9 -99.99 -9.99
2019/04/20 07:06 PDT   -0.64  -0.13    4  276   11  53.1  54.9 1012.7 -9.9 -9.999 -99.9 -99.99 -9.99
2019/04/20 07:12 PDT   -0.62  -0.07    6  254   13  52.9  54.9 1012.8 -9.9 -9.999 -99.9 -99.99 -9.99
2019/04/20 07:18 PDT   -0.59  -0.02    6  246   14  53.1  55.0 1012.6 -9.9 -9.999 -99.9 -99.99 -9.99
2019/04/20 07:24 PDT   -0.55   0.01    7  246   11  53.1  55.0 1012.8 -9.9 -9.999 -99.9 -99.99 -9.99
2019/04/20 07:30 PDT   -0.51   0.04    9  243   14  53.1  55.2 1013.0 -9.9 -9.999 -99.9 -99.99 -9.99
2019/04/20 07:36 PDT   -0.46   0.08    9  257   16  53.1  55.9 1013.1 -9.9 -9.999 -99.9 -99.99 -9.99
2019/04/20 07:42 PDT   -0.40   0.13    7  241   18  53.1  56.1 1013.0 -9.9 -9.999 -99.9 -99.99 -9.99
2019/04/20 07:48 PDT   -0.34   0.19    8  255   19  53.1  56.3 1013.1 -9.9 -9.999 -99.9 -99.99 -9.99
2019/04/20 07:54 PDT   -0.27   0.29   12  251   19  53.1  56.3 1013.1 -9.9 -9.999 -99.9 -99.99 -9.99
2019/04/20 08:00 PDT   -0.20   0.37    7  241   17  53.2  56.5 1013.1 -9.9 -9.999 -99.9 -99.99 -9.99
2019/04/20 08:06 PDT   -0.12   0.46   11  244   18  53.4  56.7 1013.2 -9.9 -9.999 -99.9 -99.99 -9.99
2019/04/20 08:12 PDT   -0.04   0.52    9  257   21  53.8  56.8 1013.3 -9.9 -9.999 -99.9 -99.99 -9.99
2019/04/20 08:18 PDT    0.05   0.62    8  268   12  53.8  56.8 1013.4 -9.9 -9.999 -99.9 -99.99 -9.99
2019/04/20 08:24 PDT    0.14   0.66    8  272   16  53.6  57.0 1013.4 -9.9 -9.999 -99.9 -99.99 -9.99
2019/04/20 08:30 PDT    0.24   0.72    7  262   13  53.4  57.2 1013.4 -9.9 -9.999 -99.9 -99.99 -9.99
2019/04/20 08:36 PDT    0.34   0.81    5  261   13  53.6  57.2 1013.4 -9.9 -9.999 -99.9 -99.99 -9.99
2019/04/20 08:42 PDT    0.44   0.92    6  278   13  54.0  57.4 1013.5 -9.9 -9.999 -99.9 -99.99 -9.99
2019/04/20 08:48 PDT    0.55   0.99    7  282   14  54.1  57.4 1013.6 -9.9 -9.999 -99.9 -99.99 -9.99
2019/04/20 08:54 PDT    0.66   1.11   11  266   16  54.1  57.4 1013.6 -9.9 -9.999 -99.9 -99.99 -9.99
2019/04/20 09:00 PDT    0.77   1.22    9  264   15  54.3  57.6 1013.6 -9.9 -9.999 -99.9 -99.99 -9.99
2019/04/20 09:06 PDT    0.88   1.34    9  276   12  54.5  57.6 1013.6 -9.9 -9.999 -99.9 -99.99 -9.99
2019/04/20 09:12 PDT    1.00   1.45   10  255   17  54.5  57.6 1013.6 -9.9 -9.999 -99.9 -99.99 -9.99
2019/04/20 09:18 PDT    1.12   1.57    8  256   17  54.7  57.7 1013.7 -9.9 -9.999 -99.9 -99.99 -9.99
2019/04/20 09:24 PDT    1.24   1.70    9  261   17  54.5  57.7 1013.8 -9.9 -9.999 -99.9 -99.99 -9.99
2019/04/20 09:30 PDT    1.37   1.82   12  272   17  54.3  57.7 1013.8 -9.9 -9.999 -99.9 -99.99 -9.99
2019/04/20 09:36 PDT    1.49   1.92    9  266   17  54.3  57.7 1013.9 -9.9 -9.999 -99.9 -99.99 -9.99
2019/04/20 09:42 PDT    1.62   2.05   11  261   17  54.3  57.7 1014.0 -9.9 -9.999 -99.9 -99.99 -9.99
2019/04/20 09:48 PDT    1.74   2.16   11  260   19  54.3  57.9 1014.1 -9.9 -9.999 -99.9 -99.99 -9.99
2019/04/20 09:54 PDT    1.87   2.26   14  266   22  54.0  57.9 1014.1 -9.9 -9.999 -99.9 -99.99 -9.99
2019/04/20 10:00 PDT    2.00   2.35   16  271   21  53.8  57.9 1014.1 -9.9 -9.999 -99.9 -99.99 -9.99
2019/04/20 10:06 PDT    2.12   2.50   15  270   21  53.8  57.9 1014.2 -9.9 -9.999 -99.9 -99.99 -9.99
2019/04/20 10:12 PDT    2.25   2.65   14  268   21  53.8  57.9 1014.3 -9.9 -9.999 -99.9 -99.99 -9.99
2019/04/20 10:18 PDT    2.38   2.78   11  266   25  54.0  57.9 1014.4 -9.9 -9.999 -99.9 -99.99 -9.99
2019/04/20 10:24 PDT    2.50   2.86   12  266   19  54.1  57.9 1014.5 -9.9 -9.999 -99.9 -99.99 -9.99
2019/04/20 10:30 PDT    2.63   2.96   14  266   20  54.1  57.4 1014.5 -9.9 -9.999 -99.9 -99.99 -9.99
2019/04/20 10:36 PDT    2.75   3.07   14  267   18  54.3  57.4 1014.5 -9.9 -9.999 -99.9 -99.99 -9.99
2019/04/20 10:42 PDT    2.88   3.22   11  270   19  54.5  57.2 1014.6 -9.9 -9.999 -99.9 -99.99 -9.99
2019/04/20 10:48 PDT    3.00   3.37   12  275   24  54.7  57.4 1014.7 -9.9 -9.999 -99.9 -99.99 -9.99
2019/04/20 10:54 PDT    3.12   3.51   14  269   19  54.7  57.4 1014.7 -9.9 -9.999 -99.9 -99.99 -9.99
2019/04/20 11:00 PDT    3.24   3.64   13  275   22  55.0  57.4 1014.8 -9.9 -9.999 -99.9 -99.99 -9.99
2019/04/20 11:06 PDT    3.36   3.75   12  266   19  55.2  57.6 1014.9 -9.9 -9.999 -99.9 -99.99 -9.99
2019/04/20 11:12 PDT    3.47   3.86   11  258   21  55.2  57.6 1014.9 -9.9 -9.999 -99.9 -99.99 -9.99
2019/04/20 11:18 PDT    3.59   3.96   12  259   18  55.2  56.7 1015.0 -9.9 -9.999 -99.9 -99.99 -9.99
2019/04/20 11:24 PDT    3.70   4.07   11  264   19  55.6  56.5 1015.0 -9.9 -9.999 -99.9 -99.99 -9.99
2019/04/20 11:30 PDT    3.81   4.17   14  266   21  55.2  55.9 1015.1 -9.9 -9.999 -99.9 -99.99 -9.99
2019/04/20 11:36 PDT    3.91   4.24   11  267   19  55.2  55.6 1015.1 -9.9 -9.999 -99.9 -99.99 -9.99
2019/04/20 11:42 PDT    4.02   4.31   13  264   22  55.0  55.6 1015.2 -9.9 -9.999 -99.9 -99.99 -9.99
2019/04/20 11:48 PDT    4.12   4.38   11  262   21  54.9  55.6 1015.2 -9.9 -9.999 -99.9 -99.99 -9.99
2019/04/20 11:54 PDT    4.21   4.46   14  273   22  54.7  55.6 1015.3 -9.9 -9.999 -99.9 -99.99 -9.99
2019/04/20 12:00 PDT    4.30   4.53   13  275   20  54.7  55.6 1015.3 -9.9 -9.999 -99.9 -99.99 -9.99
2019/04/20 12:06 PDT    4.39   4.61   13  270   21  54.7  55.6 1015.3 -9.9 -9.999 -99.9 -99.99 -9.99
2019/04/20 12:12 PDT    4.48   4.68   13  268   21  54.7  55.6 1015.2 -9.9 -9.999 -99.9 -99.99 -9.99
2019/04/20 12:18 PDT    4.55   4.74   10  259   21  54.9  55.6 1015.2 -9.9 -9.999 -99.9 -99.99 -9.99
2019/04/20 12:24 PDT    4.63   4.81   13  264   21  54.9  55.6 1015.3 -9.9 -9.999 -99.9 -99.99 -9.99
2019/04/20 12:30 PDT    4.70   4.86   16  264   24  54.7  55.8 1015.3 -9.9 -9.999 -99.9 -99.99 -9.99
2019/04/20 12:36 PDT    4.76   4.95   13  271   19  54.7  55.8 1015.3 -9.9 -9.999 -99.9 -99.99 -9.99
2019/04/20 12:42 PDT    4.82   5.01   14  260   22  54.7  55.6 1015.3 -9.9 -9.999 -99.9 -99.99 -9.99
2019/04/20 12:48 PDT    4.87   5.04   17  280   26  54.7  55.6 1015.4 -9.9 -9.999 -99.9 -99.99 -9.99
2019/04/20 12:54 PDT    4.92   5.11   12  268   24  54.9  55.4 1015.4 -9.9 -9.999 -99.9 -99.99 -9.99
2019/04/20 13:00 PDT    4.96   5.15   13  278   19  54.7  55.0 1015.5 -9.9 -9.999 -99.9 -99.99 -9.99
2019/04/20 13:06 PDT    4.99   5.17   12  277   19  54.7  54.9 1015.5 -9.9 -9.999 -99.9 -99.99 -9.99
2019/04/20 13:12 PDT    5.02   5.18   15  268   26  54.7  54.7 1015.5 -9.9 -9.999 -99.9 -99.99 -9.99
2019/04/20 13:18 PDT    5.04   5.22   10  263   20  55.0  54.5 1015.5 -9.9 -9.999 -99.9 -99.99 -9.99
2019/04/20 13:24 PDT    5.05   5.23   15  270   22  54.9  54.5 1015.4 -9.9 -9.999 -99.9 -99.99 -9.99
2019/04/20 13:30 PDT    5.06   5.21   11  268   21  55.2  54.3 1015.5 -9.9 -9.999 -99.9 -99.99 -9.99
2019/04/20 13:36 PDT    5.06   5.21   15  278   20  54.9  54.1 1015.6 -9.9 -9.999 -99.9 -99.99 -9.99
2019/04/20 13:42 PDT    5.05   5.21   11  275   19  54.9  54.1 1015.6 -9.9 -9.999 -99.9 -99.99 -9.99
2019/04/20 13:48 PDT    5.03   5.18   12  270   21  54.9  54.1 1015.6 -9.9 -9.999 -99.9 -99.99 -9.99
2019/04/20 13:54 PDT    5.01   5.19   14  273   21  54.7  54.1 1015.5 -9.9 -9.999 -99.9 -99.99 -9.99
2019/04/20 14:00 PDT    4.99   5.16   15  277   25  54.7  54.0 1015.5 -9.9 -9.999 -99.9 -99.99 -9.99
2019/04/20 14:06 PDT    4.95   5.15   16  275   25  54.5  54.0 1015.6 -9.9 -9.999 -99.9 -99.99 -9.99
2019/04/20 14:12 PDT    4.91   5.13   13  275   24  54.9  54.0 1015.6 -9.9 -9.999 -99.9 -99.99 -9.99
2019/04/20 14:18 PDT    4.86   5.10   14  277   23  54.9  54.0 1015.7 -9.9 -9.999 -99.9 -99.99 -9.99
2019/04/20 14:24 PDT    4.81   5.08   11  272   20  54.9  54.0 1015.6 -9.9 -9.999 -99.9 -99.99 -9.99
2019/04/20 14:30 PDT    4.75   5.05   13  279   21  54.9  54.0 1015.6 -9.9 -9.999 -99.9 -99.99 -9.99
2019/04/20 14:36 PDT    4.69   5.05   12  269   20  54.9  54.1 1015.6 -9.9 -9.999 -99.9 -99.99 -9.99
2019/04/20 14:42 PDT    4.62   4.99   11  266   20  55.0  54.1 1015.6 -9.9 -9.999 -99.9 -99.99 -9.99
2019/04/20 14:48 PDT    4.54   4.87   13  260   19  54.9  54.3 1015.5 -9.9 -9.999 -99.9 -99.99 -9.99
2019/04/20 14:54 PDT    4.46   4.79   12  258   18  55.0  54.5 1015.5 -9.9 -9.999 -99.9 -99.99 -9.99
2019/04/20 15:00 PDT    4.37   4.72   11  273   25  54.7  54.7 1015.5 -9.9 -9.999 -99.9 -99.99 -9.99
2019/04/20 15:06 PDT    4.28   4.65   12  269   21  54.5  54.9 1015.4 -9.9 -9.999 -99.9 -99.99 -9.99
2019/04/20 15:12 PDT    4.19   4.59   12  267   23  54.5  55.0 1015.3 -9.9 -9.999 -99.9 -99.99 -9.99
2019/04/20 15:18 PDT    4.09   4.52   12  274   23  54.3  55.0 1015.3 -9.9 -9.999 -99.9 -99.99 -9.99
2019/04/20 15:24 PDT    3.99   4.47   16  267   24  54.3  55.0 1015.2 -9.9 -9.999 -99.9 -99.99 -9.99
2019/04/20 15:30 PDT    3.89   4.35   13  278   23  54.3  55.0 1015.1 -9.9 -9.999 -99.9 -99.99 -9.99
2019/04/20 15:36 PDT    3.78   4.27   15  272   24  54.3  55.2 1014.9 -9.9 -9.999 -99.9 -99.99 -9.99
2019/04/20 15:42 PDT    3.67   4.16   11  276   22  54.3  55.2 1014.7 -9.9 -9.999 -99.9 -99.99 -9.99
2019/04/20 15:48 PDT    3.56   4.04   15  272   28  54.1  55.2 1014.6 -9.9 -9.999 -99.9 -99.99 -9.99
2019/04/20 15:54 PDT    3.45   3.91   14  282   27  54.1  55.2 1014.6 -9.9 -9.999 -99.9 -99.99 -9.99
2019/04/20 16:00 PDT    3.34   3.83   19  277   30  54.0  55.0 1014.7 -9.9 -9.999 -99.9 -99.99 -9.99
2019/04/20 16:06 PDT    3.22   3.73   15  276   25  54.0  55.0 1014.7 -9.9 -9.999 -99.9 -99.99 -9.99
2019/04/20 16:12 PDT    3.11   3.63   14  268   21  54.1  55.0 1014.8 -9.9 -9.999 -99.9 -99.99 -9.99
2019/04/20 16:18 PDT    3.00   3.51   10  275   19  54.1  55.0 1014.8 -9.9 -9.999 -99.9 -99.99 -9.99
2019/04/20 16:24 PDT    2.89   3.40   12  280   20  54.1  55.0 1014.7 -9.9 -9.999 -99.9 -99.99 -9.99
2019/04/20 16:30 PDT    2.78   3.29   15  277   25  54.0  55.0 1014.5 -9.9 -9.999 -99.9 -99.99 -9.99
2019/04/20 16:36 PDT    2.67   3.16   18  276   26  54.0  55.0 1014.6 -9.9 -9.999 -99.9 -99.99 -9.99
2019/04/20 16:42 PDT    2.56   3.04   14  276   26  54.0  55.4 1014.5 -9.9 -9.999 -99.9 -99.99 -9.99
2019/04/20 16:48 PDT    2.46   2.88   13  276   25  54.0  55.6 1014.5 -9.9 -9.999 -99.9 -99.99 -9.99
2019/04/20 16:54 PDT    2.36   2.79   15  282   27  53.8  55.6 1014.6 -9.9 -9.999 -99.9 -99.99 -9.99
2019/04/20 17:00 PDT    2.26   2.67   14  281   23  54.0  55.8 1014.6 -9.9 -9.999 -99.9 -99.99 -9.99
2019/04/20 17:06 PDT    2.16   2.56   12  274   22  54.1  55.9 1014.6 -9.9 -9.999 -99.9 -99.99 -9.99
2019/04/20 17:12 PDT    2.07   2.44   15  288   21  54.0  56.1 1014.5 -9.9 -9.999 -99.9 -99.99 -9.99
2019/04/20 17:18 PDT    1.99   2.37   14  281   24  53.8  56.1 1014.3 -9.9 -9.999 -99.9 -99.99 -9.99
2019/04/20 17:24 PDT    1.91   2.31   16  287   24  53.8  56.1 1014.3 -9.9 -9.999 -99.9 -99.99 -9.99
2019/04/20 17:30 PDT    1.83   2.21   12  277   27  53.8  56.1 1014.2 -9.9 -9.999 -99.9 -99.99 -9.99
2019/04/20 17:36 PDT    1.76   2.12   14  267   22  53.8  56.1 1014.2 -9.9 -9.999 -99.9 -99.99 -9.99
2019/04/20 17:42 PDT    1.69   2.05   14  273   22  53.8  56.1 1014.1 -9.9 -9.999 -99.9 -99.99 -9.99
2019/04/20 17:48 PDT    1.63   1.95   13  267   20  54.0  56.1 1014.1 -9.9 -9.999 -99.9 -99.99 -9.99
2019/04/20 17:54 PDT    1.58   1.90   17  270   27  53.8  56.1 1014.0 -9.9 -9.999 -99.9 -99.99 -9.99
2019/04/20 18:00 PDT    1.53   1.87   17  269   23  53.8  56.1 1014.1 -9.9 -9.999 -99.9 -99.99 -9.99
2019/04/20 18:06 PDT    1.49   1.83   14  258   24  53.8  56.1 1014.1 -9.9 -9.999 -99.9 -99.99 -9.99
2019/04/20 18:12 PDT    1.45   1.82   13  271   22  54.0  56.1 1014.1 -9.9 -9.999 -99.9 -99.99 -9.99
2019/04/20 18:18 PDT    1.42   1.77   10  262   21  54.1  56.1 1014.1 -9.9 -9.999 -99.9 -99.99 -9.99
2019/04/20 18:24 PDT    1.40   1.76    9  272   19  54.0  56.1 1014.0 -9.9 -9.999 -99.9 -99.99 -9.99
2019/04/20 18:30 PDT    1.38   1.71   11  273   24  53.8  56.1 1014.0 -9.9 -9.999 -99.9 -99.99 -9.99
2019/04/20 18:36 PDT    1.36   1.70   15  264   24  54.0  56.1 1014.1 -9.9 -9.999 -99.9 -99.99 -9.99
2019/04/20 18:42 PDT    1.36   1.70   16  254   24  54.0  56.1 1014.1 -9.9 -9.999 -99.9 -99.99 -9.99
2019/04/20 18:48 PDT    1.36   1.68   12  258   24  54.0  56.1 1014.4 -9.9 -9.999 -99.9 -99.99 -9.99
2019/04/20 18:54 PDT    1.36   1.70   13  260   20  54.0  56.1 1014.4 -9.9 -9.999 -99.9 -99.99 -9.99
2019/04/20 19:00 PDT    1.37   1.72   11  262   19  53.8  56.1 1014.4 -9.9 -9.999 -99.9 -99.99 -9.99
2019/04/20 19:06 PDT    1.39   1.73   13  267   18  53.6  56.1 1014.4 -9.9 -9.999 -99.9 -99.99 -9.99
2019/04/20 19:12 PDT    1.41   1.79   13  264   21  53.2  56.1 1014.4 -9.9 -9.999 -99.9 -99.99 -9.99
2019/04/20 19:18 PDT    1.44   1.84   11  268   18  53.4  55.9 1014.5 -9.9 -9.999 -99.9 -99.99 -9.99
2019/04/20 19:24 PDT    1.48   1.86    9  259   18  53.4  55.9 1014.5 -9.9 -9.999 -99.9 -99.99 -9.99
2019/04/20 19:30 PDT    1.52   1.93    8  267   15  53.4  55.8 1014.4 -9.9 -9.999 -99.9 -99.99 -9.99
2019/04/20 19:36 PDT    1.56   2.01   11  251   15  53.4  55.6 1014.2 -9.9 -9.999 -99.9 -99.99 -9.99
2019/04/20 19:42 PDT    1.61   2.09   10  258   16  53.2  55.6 1014.4 -9.9 -9.999 -99.9 -99.99 -9.99
2019/04/20 19:48 PDT    1.67   2.15    8  265   15  53.1  55.8 1014.4 -9.9 -9.999 -99.9 -99.99 -9.99
2019/04/20 19:54 PDT    1.73   2.21    9  274   15  53.1  55.8 1014.6 -9.9 -9.999 -99.9 -99.99 -9.99
2019/04/20 20:00 PDT    1.79   2.25    7  274   13  53.1  55.8 1014.8 -9.9 -9.999 -99.9 -99.99 -9.99
2019/04/20 20:06 PDT    1.86   2.31    9  290   13  53.1  55.8 1014.9 -9.9 -9.999 -99.9 -99.99 -9.99
2019/04/20 20:12 PDT    1.93   2.36   14  276   17  53.1  55.8 1014.9 -9.9 -9.999 -99.9 -99.99 -9.99
2019/04/20 20:18 PDT    2.01   2.43   11  269   17  52.9  55.8 1015.2 -9.9 -9.999 -99.9 -99.99 -9.99
2019/04/20 20:24 PDT    2.09   2.51    9  283   15  52.9  55.8 1015.4 -9.9 -9.999 -99.9 -99.99 -9.99
2019/04/20 20:30 PDT    2.18   2.61    9  251   13  52.7  55.9 1015.4 -9.9 -9.999 -99.9 -99.99 -9.99
2019/04/20 20:36 PDT    2.27   2.71    7  245   12  52.7  55.9 1015.5 -9.9 -9.999 -99.9 -99.99 -9.99
2019/04/20 20:42 PDT    2.36   2.79    8  251   12  52.9  56.1 1015.5 -9.9 -9.999 -99.9 -99.99 -9.99
2019/04/20 20:48 PDT    2.45   2.87    8  244   13  52.7  56.1 1015.5 -9.9 -9.999 -99.9 -99.99 -9.99
2019/04/20 20:54 PDT    2.55   2.95    7  248   13  52.5  56.1 1015.7 -9.9 -9.999 -99.9 -99.99 -9.99
2019/04/20 21:00 PDT    2.65   3.01    9  257   13  52.5  56.1 1015.7 -9.9 -9.999 -99.9 -99.99 -9.99
2019/04/20 21:06 PDT    2.76   3.11    9  250   15  52.3  56.1 1015.7 -9.9 -9.999 -99.9 -99.99 -9.99
2019/04/20 21:12 PDT    2.86   3.24    8  251   15  52.3  56.3 1015.8 -9.9 -9.999 -99.9 -99.99 -9.99
2019/04/20 21:18 PDT    2.97   3.33    7  263   13  52.3  56.3 1015.9 -9.9 -9.999 -99.9 -99.99 -9.99
2019/04/20 21:24 PDT    3.08   3.44    8  250   11  52.2  56.5 1015.8 -9.9 -9.999 -99.9 -99.99 -9.99
2019/04/20 21:30 PDT    3.19   3.53    7  242   10  52.2  56.5 1015.9 -9.9 -9.999 -99.9 -99.99 -9.99
2019/04/20 21:36 PDT    3.30   3.64    8  238   12  52.0  56.5 1015.9 -9.9 -9.999 -99.9 -99.99 -9.99
2019/04/20 21:42 PDT    3.42   3.77    9  249   11  52.2  56.7 1016.0 -9.9 -9.999 -99.9 -99.99 -9.99
2019/04/20 21:48 PDT    3.53   3.87    9  247   13  52.2  56.7 1016.0 -9.9 -9.999 -99.9 -99.99 -9.99
2019/04/20 21:54 PDT    3.64   3.97   10  252   13  52.2  56.7 1016.0 -9.9 -9.999 -99.9 -99.99 -9.99
2019/04/20 22:00 PDT    3.76   4.07   10  251   13  52.0  56.7 1016.2 -9.9 -9.999 -99.9 -99.99 -9.99
2019/04/20 22:06 PDT    3.87   4.17    8  250   14  52.0  56.7 1016.2 -9.9 -9.999 -99.9 -99.99 -9.99
2019/04/20 22:12 PDT    3.98   4.28    7  240   13  51.8  56.7 1016.3 -9.9 -9.999 -99.9 -99.99 -9.99
2019/04/20 22:18 PDT    4.10   4.37   10  240   14  51.8  56.7 1016.3 -9.9 -9.999 -99.9 -99.99 -9.99
2019/04/20 22:24 PDT    4.21   4.46   11  248   16  52.0  56.7 1016.3 -9.9 -9.999 -99.9 -99.99 -9.99
2019/04/20 22:30 PDT    4.32   4.59    9  242   13  52.2  56.5 1016.4 -9.9 -9.999 -99.9 -99.99 -9.99
2019/04/20 22:36 PDT    4.43   4.72    7  245   12  52.0  56.5 1016.4 -9.9 -9.999 -99.9 -99.99 -9.99
2019/04/20 22:42 PDT    4.53   4.82    9  242   13  52.0  56.5 1016.5 -9.9 -9.999 -99.9 -99.99 -9.99
2019/04/20 22:48 PDT    4.64   4.91    8  243   11  51.8  56.5 1016.4 -9.9 -9.999 -99.9 -99.99 -9.99
2019/04/20 22:54 PDT    4.74   5.01    8  249   12  51.8  56.5 1016.4 -9.9 -9.999 -99.9 -99.99 -9.99
2019/04/20 23:00 PDT    4.84   5.09    8  245   12  51.6  56.5 1016.5 -9.9 -9.999 -99.9 -99.99 -9.99
2019/04/20 23:06 PDT    4.94   5.20    8  243   12  51.6  56.3 1016.4 -9.9 -9.999 -99.9 -99.99 -9.99
2019/04/20 23:12 PDT    5.04   5.26    7  249   10  51.4  54.9 1016.4 -9.9 -9.999 -99.9 -99.99 -9.99
2019/04/20 23:18 PDT    5.13   5.34    8  246   12  51.4  54.7 1016.5 -9.9 -9.999 -99.9 -99.99 -9.99
2019/04/20 23:24 PDT    5.23   5.43    7  250   11  51.4  54.7 1016.7 -9.9 -9.999 -99.9 -99.99 -9.99
2019/04/20 23:30 PDT    5.31   5.57    5  291    7  51.4  54.5 1016.7 -9.9 -9.999 -99.9 -99.99 -9.99
2019/04/20 23:36 PDT    5.40   5.68    6  253    9  51.3  54.5 1016.8 -9.9 -9.999 -99.9 -99.99 -9.99
2019/04/20 23:42 PDT    5.48   5.77    5  232    9  51.3  54.5 1016.8 -9.9 -9.999 -99.9 -99.99 -9.99
2019/04/20 23:48 PDT    5.56   5.82    6  227    8  51.3  54.5 1016.7 -9.9 -9.999 -99.9 -99.99 -9.99
2019/04/20 23:54 PDT    5.63   5.85    4  202    6  51.1  54.5 1016.8 -9.9 -9.999 -99.9 -99.99 -9.99
2019/04/21 00:00 PDT    5.70   5.91    4  199    5  50.9  54.5 1016.7 -9.9 -9.999 -99.9 -99.99 -9.99
2019/04/21 00:06 PDT    5.76   5.98    5  198    5  50.7  54.5 1016.7 -9.9 -9.999 -99.9 -99.99 -9.99
2019/04/21 00:12 PDT    5.83   6.05    5  201    6  50.5  54.5 1016.7 -9.9 -9.999 -99.9 -99.99 -9.99
2019/04/21 00:18 PDT    5.88   6.09    5  202    6  50.5  54.3 1016.8 -9.9 -9.999 -99.9 -99.99 -9.99
2019/04/21 00:24 PDT    5.93   6.13    4  211    6  50.4  54.3 1016.9 -9.9 -9.999 -99.9 -99.99 -9.99
2019/04/21 00:30 PDT    5.97   6.19    4  198    4  50.4  54.5 1017.0 -9.9 -9.999 -99.9 -99.99 -9.99
2019/04/21 00:36 PDT    6.01   6.22    4  205    5  50.0  54.7 1017.1 -9.9 -9.999 -99.9 -99.99 -9.99
2019/04/21 00:42 PDT    6.05   6.25    4  208    5  50.0  54.7 1017.2 -9.9 -9.999 -99.9 -99.99 -9.99
2019/04/21 00:48 PDT    6.07   6.29    3  208    4  50.2  54.7 1017.2 -9.9 -9.999 -99.9 -99.99 -9.99
2019/04/21 00:54 PDT    6.09   6.28    4  208    4  50.0  54.5 1017.3 -9.9 -9.999 -99.9 -99.99 -9.99
2019/04/21 01:00 PDT    6.11   6.30    4  211    5  50.0  54.7 1017.3 -9.9 -9.999 -99.9 -99.99 -9.99
2019/04/21 01:06 PDT    6.11   6.27    4  196    5  49.8  54.7 1017.3 -9.9 -9.999 -99.9 -99.99 -9.99
2019/04/21 01:12 PDT    6.11   6.29    4  201    4  49.8  54.7 1017.4 -9.9 -9.999 -99.9 -99.99 -9.99
2019/04/21 01:18 PDT    6.10   6.27    4  203    4  49.6  54.7 1017.4 -9.9 -9.999 -99.9 -99.99 -9.99
2019/04/21 01:24 PDT    6.09   6.26    4  207    4  49.6  54.5 1017.4 -9.9 -9.999 -99.9 -99.99 -9.99
2019/04/21 01:30 PDT    6.07   6.21    4  203    5  49.6  54.5 1017.5 -9.9 -9.999 -99.9 -99.99 -9.99
2019/04/21 01:36 PDT    6.04 -99.99 -999 -999 -999 -99.9 -99.9 -999.9 -9.9 -9.999 -99.9 -99.99 -9.99
2019/04/21 01:42 PDT    6.00 -99.99 -999 -999 -999 -99.9 -99.9 -999.9 -9.9 -9.999 -99.9 -99.99 -9.99
2019/04/21 01:48 PDT    5.95 -99.99 -999 -999 -999 -99.9 -99.9 -999.9 -9.9 -9.999 -99.9 -99.99 -9.99

Revised: 08/08/2018
NOAA / National Ocean Service
Web site owner: Center for Operational Oceanographic Products and Services